<?xml version="1.0" encoding="UTF-8" standalone="no" ?>
<gpx xmlns="http://www.topografix.com/GPX/1/1" xmlns:xsi="http://www.w3.org/2001/XMLSchema-instance" xsi:schemaLocation="http://www.topografix.com/GPX/1/1 http://www.topografix.com/GPX/1/1/gpx.xsd" version="1.1" creator="VisuGPX - https://www.visugpx.com">
  <metadata>
    <name>St Hil</name>
    <desc><![CDATA[
]]></desc>
  </metadata>
  <trk>
    <name><![CDATA[St Hil_1]]></name>
    <extensions>
      <line xmlns="http://www.topografix.com/GPX/gpx_style/0/2">
        <color>0000FF</color>
        <width>4</width>
      </line>
    </extensions>
    <trkseg>
      <trkpt lat="45.31411" lon="5.88619">
        <ele>970.44799804688</ele>
        <time>2017-12-13T11:10:42Z</time>
      </trkpt>
      <trkpt lat="45.31407" lon="5.88615">
        <ele>968.44799804688</ele>
        <time>2017-12-13T11:10:45Z</time>
      </trkpt>
      <trkpt lat="45.31404" lon="5.88607">
        <ele>975.44799804688</ele>
        <time>2017-12-13T11:11:42Z</time>
      </trkpt>
      <trkpt lat="45.31401" lon="5.88601">
        <ele>976.44702148438</ele>
        <time>2017-12-13T11:11:44Z</time>
      </trkpt>
      <trkpt lat="45.31398" lon="5.88596">
        <ele>975.44702148438</ele>
        <time>2017-12-13T11:11:47Z</time>
      </trkpt>
      <trkpt lat="45.31396" lon="5.8859">
        <ele>975.44702148438</ele>
        <time>2017-12-13T11:11:50Z</time>
      </trkpt>
      <trkpt lat="45.31391" lon="5.88584">
        <ele>976.44702148438</ele>
        <time>2017-12-13T11:11:55Z</time>
      </trkpt>
      <trkpt lat="45.31387" lon="5.88578">
        <ele>975.44702148438</ele>
        <time>2017-12-13T11:11:57Z</time>
      </trkpt>
      <trkpt lat="45.31384" lon="5.88571">
        <ele>974.44702148438</ele>
        <time>2017-12-13T11:12:03Z</time>
      </trkpt>
      <trkpt lat="45.31382" lon="5.88563">
        <ele>973.44702148438</ele>
        <time>2017-12-13T11:12:06Z</time>
      </trkpt>
      <trkpt lat="45.31379" lon="5.88558">
        <ele>974.44702148438</ele>
        <time>2017-12-13T11:12:09Z</time>
      </trkpt>
      <trkpt lat="45.31376" lon="5.88553">
        <ele>975.44702148438</ele>
        <time>2017-12-13T11:12:12Z</time>
      </trkpt>
      <trkpt lat="45.31374" lon="5.88545">
        <ele>975.44702148438</ele>
        <time>2017-12-13T11:12:16Z</time>
      </trkpt>
      <trkpt lat="45.31373" lon="5.88537">
        <ele>975.44702148438</ele>
        <time>2017-12-13T11:12:20Z</time>
      </trkpt>
      <trkpt lat="45.31372" lon="5.8853">
        <ele>978.44702148438</ele>
        <time>2017-12-13T11:12:24Z</time>
      </trkpt>
      <trkpt lat="45.31371" lon="5.88522">
        <ele>977.44702148438</ele>
        <time>2017-12-13T11:12:27Z</time>
      </trkpt>
      <trkpt lat="45.31371" lon="5.88514">
        <ele>978.44702148438</ele>
        <time>2017-12-13T11:12:31Z</time>
      </trkpt>
      <trkpt lat="45.31371" lon="5.88507">
        <ele>980.44702148438</ele>
        <time>2017-12-13T11:12:35Z</time>
      </trkpt>
      <trkpt lat="45.31371" lon="5.88498">
        <ele>979.44702148438</ele>
        <time>2017-12-13T11:12:39Z</time>
      </trkpt>
      <trkpt lat="45.31371" lon="5.88489">
        <ele>981.44702148438</ele>
        <time>2017-12-13T11:12:45Z</time>
      </trkpt>
      <trkpt lat="45.31371" lon="5.88483">
        <ele>982.44702148438</ele>
        <time>2017-12-13T11:12:49Z</time>
      </trkpt>
      <trkpt lat="45.31372" lon="5.88474">
        <ele>982.44702148438</ele>
        <time>2017-12-13T11:12:53Z</time>
      </trkpt>
      <trkpt lat="45.31372" lon="5.88466">
        <ele>983.44702148438</ele>
        <time>2017-12-13T11:12:57Z</time>
      </trkpt>
      <trkpt lat="45.31374" lon="5.8846">
        <ele>983.44702148438</ele>
        <time>2017-12-13T11:13:01Z</time>
      </trkpt>
      <trkpt lat="45.31376" lon="5.88454">
        <ele>983.44702148438</ele>
        <time>2017-12-13T11:13:05Z</time>
      </trkpt>
      <trkpt lat="45.3138" lon="5.8845">
        <ele>983.44702148438</ele>
        <time>2017-12-13T11:13:09Z</time>
      </trkpt>
      <trkpt lat="45.31381" lon="5.88443">
        <ele>985.44702148438</ele>
        <time>2017-12-13T11:13:13Z</time>
      </trkpt>
      <trkpt lat="45.31381" lon="5.88437">
        <ele>987.44702148438</ele>
        <time>2017-12-13T11:13:19Z</time>
      </trkpt>
      <trkpt lat="45.3138" lon="5.8843">
        <ele>985.44702148438</ele>
        <time>2017-12-13T11:13:22Z</time>
      </trkpt>
      <trkpt lat="45.31379" lon="5.88422">
        <ele>984.44702148438</ele>
        <time>2017-12-13T11:13:25Z</time>
      </trkpt>
      <trkpt lat="45.3138" lon="5.88414">
        <ele>988.44702148438</ele>
        <time>2017-12-13T11:13:31Z</time>
      </trkpt>
      <trkpt lat="45.3138" lon="5.88407">
        <ele>991.44702148438</ele>
        <time>2017-12-13T11:13:37Z</time>
      </trkpt>
      <trkpt lat="45.31379" lon="5.884">
        <ele>992.44702148438</ele>
        <time>2017-12-13T11:13:42Z</time>
      </trkpt>
      <trkpt lat="45.31381" lon="5.88393">
        <ele>994.44702148438</ele>
        <time>2017-12-13T11:13:48Z</time>
      </trkpt>
      <trkpt lat="45.31378" lon="5.88387">
        <ele>1000.4470214844</ele>
        <time>2017-12-13T11:13:55Z</time>
      </trkpt>
      <trkpt lat="45.31379" lon="5.8838">
        <ele>998.44702148438</ele>
        <time>2017-12-13T11:13:58Z</time>
      </trkpt>
      <trkpt lat="45.31378" lon="5.88373">
        <ele>998.44702148438</ele>
        <time>2017-12-13T11:14:01Z</time>
      </trkpt>
      <trkpt lat="45.31376" lon="5.88366">
        <ele>999.44702148438</ele>
        <time>2017-12-13T11:14:04Z</time>
      </trkpt>
      <trkpt lat="45.31379" lon="5.8836">
        <ele>999.44702148438</ele>
        <time>2017-12-13T11:14:10Z</time>
      </trkpt>
      <trkpt lat="45.31381" lon="5.88353">
        <ele>1001.4470214844</ele>
        <time>2017-12-13T11:14:16Z</time>
      </trkpt>
      <trkpt lat="45.31385" lon="5.88348">
        <ele>1003.4470214844</ele>
        <time>2017-12-13T11:14:23Z</time>
      </trkpt>
      <trkpt lat="45.31387" lon="5.88342">
        <ele>1005.4470214844</ele>
        <time>2017-12-13T11:14:28Z</time>
      </trkpt>
      <trkpt lat="45.31387" lon="5.88335">
        <ele>1007.4470214844</ele>
        <time>2017-12-13T11:14:34Z</time>
      </trkpt>
      <trkpt lat="45.31388" lon="5.88329">
        <ele>1008.4470214844</ele>
        <time>2017-12-13T11:14:39Z</time>
      </trkpt>
      <trkpt lat="45.31389" lon="5.88322">
        <ele>1010.4470214844</ele>
        <time>2017-12-13T11:14:44Z</time>
      </trkpt>
      <trkpt lat="45.3139" lon="5.88316">
        <ele>1013.4470214844</ele>
        <time>2017-12-13T11:14:51Z</time>
      </trkpt>
      <trkpt lat="45.31391" lon="5.8831">
        <ele>1013.4470214844</ele>
        <time>2017-12-13T11:14:55Z</time>
      </trkpt>
      <trkpt lat="45.31392" lon="5.88303">
        <ele>1015.4470214844</ele>
        <time>2017-12-13T11:15:05Z</time>
      </trkpt>
      <trkpt lat="45.31393" lon="5.88295">
        <ele>1016.4470214844</ele>
        <time>2017-12-13T11:15:14Z</time>
      </trkpt>
      <trkpt lat="45.31396" lon="5.8829">
        <ele>1015.4470214844</ele>
        <time>2017-12-13T11:15:18Z</time>
      </trkpt>
      <trkpt lat="45.31399" lon="5.88284">
        <ele>1016.4470214844</ele>
        <time>2017-12-13T11:15:24Z</time>
      </trkpt>
      <trkpt lat="45.31402" lon="5.8828">
        <ele>1017.4470214844</ele>
        <time>2017-12-13T11:15:30Z</time>
      </trkpt>
      <trkpt lat="45.31405" lon="5.88275">
        <ele>1019.4470214844</ele>
        <time>2017-12-13T11:15:33Z</time>
      </trkpt>
      <trkpt lat="45.31405" lon="5.88267">
        <ele>1019.4470214844</ele>
        <time>2017-12-13T11:15:40Z</time>
      </trkpt>
      <trkpt lat="45.31407" lon="5.8826">
        <ele>1022.4470214844</ele>
        <time>2017-12-13T11:15:47Z</time>
      </trkpt>
      <trkpt lat="45.31404" lon="5.88255">
        <ele>1020.4470214844</ele>
        <time>2017-12-13T11:15:49Z</time>
      </trkpt>
      <trkpt lat="45.31404" lon="5.88249">
        <ele>1023.4470214844</ele>
        <time>2017-12-13T11:15:54Z</time>
      </trkpt>
      <trkpt lat="45.31407" lon="5.88244">
        <ele>1029.4470214844</ele>
        <time>2017-12-13T11:16:03Z</time>
      </trkpt>
      <trkpt lat="45.31408" lon="5.88237">
        <ele>1036.4470214844</ele>
        <time>2017-12-13T11:16:11Z</time>
      </trkpt>
      <trkpt lat="45.31408" lon="5.8823">
        <ele>1033.4470214844</ele>
        <time>2017-12-13T11:16:16Z</time>
      </trkpt>
      <trkpt lat="45.31407" lon="5.88223">
        <ele>1031.4470214844</ele>
        <time>2017-12-13T11:16:22Z</time>
      </trkpt>
      <trkpt lat="45.31409" lon="5.88217">
        <ele>1032.4470214844</ele>
        <time>2017-12-13T11:16:29Z</time>
      </trkpt>
      <trkpt lat="45.3141" lon="5.88209">
        <ele>1036.4470214844</ele>
        <time>2017-12-13T11:16:34Z</time>
      </trkpt>
      <trkpt lat="45.31413" lon="5.88204">
        <ele>1041.4470214844</ele>
        <time>2017-12-13T11:16:40Z</time>
      </trkpt>
      <trkpt lat="45.31414" lon="5.88196">
        <ele>1043.4470214844</ele>
        <time>2017-12-13T11:16:47Z</time>
      </trkpt>
      <trkpt lat="45.31414" lon="5.88188">
        <ele>1045.4470214844</ele>
        <time>2017-12-13T11:16:54Z</time>
      </trkpt>
      <trkpt lat="45.31414" lon="5.88181">
        <ele>1048.4470214844</ele>
        <time>2017-12-13T11:17:02Z</time>
      </trkpt>
      <trkpt lat="45.31413" lon="5.88175">
        <ele>1049.4470214844</ele>
        <time>2017-12-13T11:17:07Z</time>
      </trkpt>
      <trkpt lat="45.31412" lon="5.88168">
        <ele>1051.4470214844</ele>
        <time>2017-12-13T11:17:12Z</time>
      </trkpt>
      <trkpt lat="45.3141" lon="5.88162">
        <ele>1051.4470214844</ele>
        <time>2017-12-13T11:17:18Z</time>
      </trkpt>
      <trkpt lat="45.31412" lon="5.88153">
        <ele>1049.4470214844</ele>
        <time>2017-12-13T11:17:25Z</time>
      </trkpt>
      <trkpt lat="45.31411" lon="5.88147">
        <ele>1052.4470214844</ele>
        <time>2017-12-13T11:17:32Z</time>
      </trkpt>
      <trkpt lat="45.31409" lon="5.88141">
        <ele>1057.4470214844</ele>
        <time>2017-12-13T11:17:41Z</time>
      </trkpt>
      <trkpt lat="45.31409" lon="5.88133">
        <ele>1060.4470214844</ele>
        <time>2017-12-13T11:17:50Z</time>
      </trkpt>
      <trkpt lat="45.31406" lon="5.88128">
        <ele>1068.4470214844</ele>
        <time>2017-12-13T11:17:58Z</time>
      </trkpt>
      <trkpt lat="45.31405" lon="5.88122">
        <ele>1072.4470214844</ele>
        <time>2017-12-13T11:18:06Z</time>
      </trkpt>
      <trkpt lat="45.31406" lon="5.88115">
        <ele>1075.4470214844</ele>
        <time>2017-12-13T11:18:13Z</time>
      </trkpt>
      <trkpt lat="45.31405" lon="5.88108">
        <ele>1074.4470214844</ele>
        <time>2017-12-13T11:18:18Z</time>
      </trkpt>
      <trkpt lat="45.31406" lon="5.88102">
        <ele>1076.4470214844</ele>
        <time>2017-12-13T11:18:25Z</time>
      </trkpt>
      <trkpt lat="45.31404" lon="5.88096">
        <ele>1080.4470214844</ele>
        <time>2017-12-13T11:18:43Z</time>
      </trkpt>
      <trkpt lat="45.314" lon="5.8809">
        <ele>1082.4470214844</ele>
        <time>2017-12-13T11:18:51Z</time>
      </trkpt>
      <trkpt lat="45.31399" lon="5.88083">
        <ele>1082.4470214844</ele>
        <time>2017-12-13T11:18:58Z</time>
      </trkpt>
      <trkpt lat="45.31394" lon="5.88079">
        <ele>1083.4470214844</ele>
        <time>2017-12-13T11:19:05Z</time>
      </trkpt>
      <trkpt lat="45.31394" lon="5.88072">
        <ele>1079.4470214844</ele>
        <time>2017-12-13T11:19:09Z</time>
      </trkpt>
      <trkpt lat="45.31393" lon="5.88064">
        <ele>1079.4470214844</ele>
        <time>2017-12-13T11:19:15Z</time>
      </trkpt>
      <trkpt lat="45.3139" lon="5.88058">
        <ele>1081.4470214844</ele>
        <time>2017-12-13T11:19:22Z</time>
      </trkpt>
      <trkpt lat="45.31386" lon="5.88054">
        <ele>1080.4470214844</ele>
        <time>2017-12-13T11:19:26Z</time>
      </trkpt>
      <trkpt lat="45.31384" lon="5.88048">
        <ele>1083.4470214844</ele>
        <time>2017-12-13T11:19:33Z</time>
      </trkpt>
      <trkpt lat="45.31381" lon="5.88042">
        <ele>1087.4470214844</ele>
        <time>2017-12-13T11:19:39Z</time>
      </trkpt>
      <trkpt lat="45.31378" lon="5.88036">
        <ele>1090.4470214844</ele>
        <time>2017-12-13T11:19:47Z</time>
      </trkpt>
      <trkpt lat="45.31375" lon="5.8803">
        <ele>1093.4470214844</ele>
        <time>2017-12-13T11:19:55Z</time>
      </trkpt>
      <trkpt lat="45.31371" lon="5.88026">
        <ele>1101.4470214844</ele>
        <time>2017-12-13T11:20:02Z</time>
      </trkpt>
      <trkpt lat="45.31368" lon="5.8802">
        <ele>1104.4470214844</ele>
        <time>2017-12-13T11:20:10Z</time>
      </trkpt>
      <trkpt lat="45.31369" lon="5.88013">
        <ele>1103.4470214844</ele>
        <time>2017-12-13T11:20:16Z</time>
      </trkpt>
      <trkpt lat="45.31367" lon="5.88006">
        <ele>1114.4470214844</ele>
        <time>2017-12-13T11:22:02Z</time>
      </trkpt>
      <trkpt lat="45.31367" lon="5.87999">
        <ele>1118.4470214844</ele>
        <time>2017-12-13T11:22:09Z</time>
      </trkpt>
      <trkpt lat="45.31367" lon="5.87991">
        <ele>1120.4470214844</ele>
        <time>2017-12-13T11:22:14Z</time>
      </trkpt>
      <trkpt lat="45.31367" lon="5.87984">
        <ele>1120.4470214844</ele>
        <time>2017-12-13T11:22:20Z</time>
      </trkpt>
      <trkpt lat="45.31365" lon="5.87978">
        <ele>1119.4470214844</ele>
        <time>2017-12-13T11:22:25Z</time>
      </trkpt>
      <trkpt lat="45.31367" lon="5.87972">
        <ele>1117.4470214844</ele>
        <time>2017-12-13T11:22:31Z</time>
      </trkpt>
      <trkpt lat="45.31367" lon="5.87965">
        <ele>1123.4470214844</ele>
        <time>2017-12-13T11:22:39Z</time>
      </trkpt>
      <trkpt lat="45.31367" lon="5.87958">
        <ele>1128.4470214844</ele>
        <time>2017-12-13T11:22:46Z</time>
      </trkpt>
      <trkpt lat="45.31367" lon="5.87951">
        <ele>1128.4470214844</ele>
        <time>2017-12-13T11:22:53Z</time>
      </trkpt>
      <trkpt lat="45.31369" lon="5.87944">
        <ele>1129.4470214844</ele>
        <time>2017-12-13T11:23:02Z</time>
      </trkpt>
      <trkpt lat="45.31366" lon="5.87939">
        <ele>1130.4470214844</ele>
        <time>2017-12-13T11:23:06Z</time>
      </trkpt>
      <trkpt lat="45.3137" lon="5.87935">
        <ele>1131.4470214844</ele>
        <time>2017-12-13T11:23:10Z</time>
      </trkpt>
      <trkpt lat="45.3137" lon="5.87928">
        <ele>1133.4470214844</ele>
        <time>2017-12-13T11:23:16Z</time>
      </trkpt>
      <trkpt lat="45.31368" lon="5.87922">
        <ele>1137.4470214844</ele>
        <time>2017-12-13T11:23:26Z</time>
      </trkpt>
      <trkpt lat="45.31369" lon="5.87915">
        <ele>1139.4470214844</ele>
        <time>2017-12-13T11:23:38Z</time>
      </trkpt>
      <trkpt lat="45.31371" lon="5.87909">
        <ele>1139.4470214844</ele>
        <time>2017-12-13T11:23:52Z</time>
      </trkpt>
      <trkpt lat="45.31375" lon="5.87876">
        <ele>1142.4460449219</ele>
        <time>2017-12-13T11:24:15Z</time>
      </trkpt>
      <trkpt lat="45.31371" lon="5.8787">
        <ele>1140.4460449219</ele>
        <time>2017-12-13T11:24:18Z</time>
      </trkpt>
      <trkpt lat="45.31372" lon="5.87863">
        <ele>1142.4460449219</ele>
        <time>2017-12-13T11:24:23Z</time>
      </trkpt>
      <trkpt lat="45.3137" lon="5.87857">
        <ele>1148.4460449219</ele>
        <time>2017-12-13T11:24:28Z</time>
      </trkpt>
      <trkpt lat="45.3137" lon="5.87849">
        <ele>1151.4460449219</ele>
        <time>2017-12-13T11:24:35Z</time>
      </trkpt>
      <trkpt lat="45.3137" lon="5.8784">
        <ele>1156.4460449219</ele>
        <time>2017-12-13T11:24:43Z</time>
      </trkpt>
      <trkpt lat="45.31368" lon="5.87834">
        <ele>1157.4460449219</ele>
        <time>2017-12-13T11:24:48Z</time>
      </trkpt>
      <trkpt lat="45.31368" lon="5.87827">
        <ele>1156.4460449219</ele>
        <time>2017-12-13T11:24:52Z</time>
      </trkpt>
      <trkpt lat="45.31368" lon="5.87819">
        <ele>1158.4460449219</ele>
        <time>2017-12-13T11:25:01Z</time>
      </trkpt>
      <trkpt lat="45.31366" lon="5.87812">
        <ele>1159.4460449219</ele>
        <time>2017-12-13T11:25:05Z</time>
      </trkpt>
      <trkpt lat="45.31367" lon="5.87805">
        <ele>1163.4460449219</ele>
        <time>2017-12-13T11:25:15Z</time>
      </trkpt>
      <trkpt lat="45.31367" lon="5.87799">
        <ele>1167.4460449219</ele>
        <time>2017-12-13T11:25:23Z</time>
      </trkpt>
      <trkpt lat="45.31366" lon="5.87791">
        <ele>1167.4460449219</ele>
        <time>2017-12-13T11:25:27Z</time>
      </trkpt>
      <trkpt lat="45.31367" lon="5.87785">
        <ele>1168.4460449219</ele>
        <time>2017-12-13T11:25:32Z</time>
      </trkpt>
      <trkpt lat="45.31367" lon="5.87777">
        <ele>1172.4460449219</ele>
        <time>2017-12-13T11:25:39Z</time>
      </trkpt>
      <trkpt lat="45.31365" lon="5.87771">
        <ele>1173.4460449219</ele>
        <time>2017-12-13T11:25:42Z</time>
      </trkpt>
      <trkpt lat="45.31363" lon="5.87766">
        <ele>1177.4460449219</ele>
        <time>2017-12-13T11:25:49Z</time>
      </trkpt>
      <trkpt lat="45.31365" lon="5.87758">
        <ele>1176.4460449219</ele>
        <time>2017-12-13T11:25:55Z</time>
      </trkpt>
      <trkpt lat="45.31366" lon="5.87751">
        <ele>1181.4460449219</ele>
        <time>2017-12-13T11:26:07Z</time>
      </trkpt>
      <trkpt lat="45.31364" lon="5.87745">
        <ele>1184.4460449219</ele>
        <time>2017-12-13T11:26:09Z</time>
      </trkpt>
      <trkpt lat="45.31366" lon="5.87737">
        <ele>1181.4460449219</ele>
        <time>2017-12-13T11:26:20Z</time>
      </trkpt>
      <trkpt lat="45.31365" lon="5.8773">
        <ele>1183.4460449219</ele>
        <time>2017-12-13T11:26:26Z</time>
      </trkpt>
      <trkpt lat="45.31368" lon="5.87724">
        <ele>1186.4460449219</ele>
        <time>2017-12-13T11:26:32Z</time>
      </trkpt>
      <trkpt lat="45.31366" lon="5.87718">
        <ele>1185.4460449219</ele>
        <time>2017-12-13T11:26:34Z</time>
      </trkpt>
      <trkpt lat="45.31364" lon="5.87712">
        <ele>1190.4460449219</ele>
        <time>2017-12-13T11:26:40Z</time>
      </trkpt>
      <trkpt lat="45.31363" lon="5.87704">
        <ele>1192.4460449219</ele>
        <time>2017-12-13T11:27:02Z</time>
      </trkpt>
      <trkpt lat="45.31362" lon="5.87696">
        <ele>1194.4460449219</ele>
        <time>2017-12-13T11:27:06Z</time>
      </trkpt>
      <trkpt lat="45.31361" lon="5.87689">
        <ele>1197.4460449219</ele>
        <time>2017-12-13T11:27:11Z</time>
      </trkpt>
      <trkpt lat="45.3136" lon="5.87682">
        <ele>1197.4460449219</ele>
        <time>2017-12-13T11:27:17Z</time>
      </trkpt>
      <trkpt lat="45.31362" lon="5.87676">
        <ele>1199.4460449219</ele>
        <time>2017-12-13T11:27:22Z</time>
      </trkpt>
      <trkpt lat="45.31361" lon="5.87668">
        <ele>1202.4460449219</ele>
        <time>2017-12-13T11:27:29Z</time>
      </trkpt>
      <trkpt lat="45.31363" lon="5.87661">
        <ele>1201.4460449219</ele>
        <time>2017-12-13T11:27:34Z</time>
      </trkpt>
      <trkpt lat="45.31361" lon="5.87655">
        <ele>1202.4460449219</ele>
        <time>2017-12-13T11:27:40Z</time>
      </trkpt>
      <trkpt lat="45.31361" lon="5.87648">
        <ele>1205.4460449219</ele>
        <time>2017-12-13T11:27:45Z</time>
      </trkpt>
      <trkpt lat="45.3136" lon="5.87641">
        <ele>1208.4460449219</ele>
        <time>2017-12-13T11:27:53Z</time>
      </trkpt>
      <trkpt lat="45.31359" lon="5.87634">
        <ele>1208.4460449219</ele>
        <time>2017-12-13T11:27:58Z</time>
      </trkpt>
      <trkpt lat="45.3136" lon="5.87627">
        <ele>1210.4460449219</ele>
        <time>2017-12-13T11:28:05Z</time>
      </trkpt>
      <trkpt lat="45.3136" lon="5.8762">
        <ele>1213.4460449219</ele>
        <time>2017-12-13T11:28:14Z</time>
      </trkpt>
      <trkpt lat="45.31359" lon="5.87612">
        <ele>1216.4460449219</ele>
        <time>2017-12-13T11:28:20Z</time>
      </trkpt>
      <trkpt lat="45.31358" lon="5.87606">
        <ele>1217.4460449219</ele>
        <time>2017-12-13T11:28:26Z</time>
      </trkpt>
      <trkpt lat="45.31358" lon="5.87599">
        <ele>1224.4460449219</ele>
        <time>2017-12-13T11:28:36Z</time>
      </trkpt>
      <trkpt lat="45.31356" lon="5.87592">
        <ele>1225.4460449219</ele>
        <time>2017-12-13T11:28:42Z</time>
      </trkpt>
      <trkpt lat="45.31356" lon="5.87586">
        <ele>1227.4460449219</ele>
        <time>2017-12-13T11:28:46Z</time>
      </trkpt>
      <trkpt lat="45.31356" lon="5.87579">
        <ele>1227.4460449219</ele>
        <time>2017-12-13T11:28:52Z</time>
      </trkpt>
      <trkpt lat="45.31353" lon="5.87573">
        <ele>1229.4460449219</ele>
        <time>2017-12-13T11:28:57Z</time>
      </trkpt>
      <trkpt lat="45.31352" lon="5.87566">
        <ele>1230.4460449219</ele>
        <time>2017-12-13T11:29:02Z</time>
      </trkpt>
      <trkpt lat="45.3135" lon="5.87558">
        <ele>1233.4460449219</ele>
        <time>2017-12-13T11:29:07Z</time>
      </trkpt>
      <trkpt lat="45.31348" lon="5.8755">
        <ele>1238.4460449219</ele>
        <time>2017-12-13T11:29:15Z</time>
      </trkpt>
      <trkpt lat="45.31346" lon="5.87545">
        <ele>1240.4460449219</ele>
        <time>2017-12-13T11:29:22Z</time>
      </trkpt>
      <trkpt lat="45.31346" lon="5.87537">
        <ele>1241.4460449219</ele>
        <time>2017-12-13T11:29:29Z</time>
      </trkpt>
      <trkpt lat="45.31343" lon="5.87531">
        <ele>1243.4460449219</ele>
        <time>2017-12-13T11:29:36Z</time>
      </trkpt>
      <trkpt lat="45.31339" lon="5.87526">
        <ele>1250.4460449219</ele>
        <time>2017-12-13T11:29:48Z</time>
      </trkpt>
      <trkpt lat="45.31339" lon="5.87518">
        <ele>1251.4460449219</ele>
        <time>2017-12-13T11:29:55Z</time>
      </trkpt>
      <trkpt lat="45.31339" lon="5.87511">
        <ele>1252.4460449219</ele>
        <time>2017-12-13T11:29:59Z</time>
      </trkpt>
      <trkpt lat="45.31337" lon="5.87505">
        <ele>1253.4460449219</ele>
        <time>2017-12-13T11:30:05Z</time>
      </trkpt>
      <trkpt lat="45.31334" lon="5.87498">
        <ele>1259.4460449219</ele>
        <time>2017-12-13T11:30:14Z</time>
      </trkpt>
      <trkpt lat="45.31333" lon="5.8749">
        <ele>1263.4460449219</ele>
        <time>2017-12-13T11:30:24Z</time>
      </trkpt>
      <trkpt lat="45.3133" lon="5.87483">
        <ele>1267.4460449219</ele>
        <time>2017-12-13T11:30:29Z</time>
      </trkpt>
      <trkpt lat="45.3133" lon="5.87476">
        <ele>1270.4460449219</ele>
        <time>2017-12-13T11:30:46Z</time>
      </trkpt>
      <trkpt lat="45.31329" lon="5.8747">
        <ele>1273.4460449219</ele>
        <time>2017-12-13T11:30:54Z</time>
      </trkpt>
      <trkpt lat="45.31328" lon="5.87463">
        <ele>1273.4460449219</ele>
        <time>2017-12-13T11:30:57Z</time>
      </trkpt>
      <trkpt lat="45.31329" lon="5.87456">
        <ele>1271.4460449219</ele>
        <time>2017-12-13T11:31:01Z</time>
      </trkpt>
      <trkpt lat="45.31326" lon="5.87449">
        <ele>1271.4460449219</ele>
        <time>2017-12-13T11:31:07Z</time>
      </trkpt>
      <trkpt lat="45.31325" lon="5.87442">
        <ele>1271.4460449219</ele>
        <time>2017-12-13T11:31:17Z</time>
      </trkpt>
      <trkpt lat="45.31325" lon="5.87433">
        <ele>1275.4460449219</ele>
        <time>2017-12-13T11:31:26Z</time>
      </trkpt>
      <trkpt lat="45.31321" lon="5.8743">
        <ele>1276.4460449219</ele>
        <time>2017-12-13T11:31:29Z</time>
      </trkpt>
      <trkpt lat="45.31322" lon="5.87422">
        <ele>1276.4460449219</ele>
        <time>2017-12-13T11:31:37Z</time>
      </trkpt>
      <trkpt lat="45.31322" lon="5.87415">
        <ele>1275.4460449219</ele>
        <time>2017-12-13T11:31:42Z</time>
      </trkpt>
      <trkpt lat="45.31324" lon="5.87408">
        <ele>1275.4460449219</ele>
        <time>2017-12-13T11:31:47Z</time>
      </trkpt>
      <trkpt lat="45.31325" lon="5.87401">
        <ele>1279.4460449219</ele>
        <time>2017-12-13T11:31:53Z</time>
      </trkpt>
      <trkpt lat="45.31323" lon="5.87393">
        <ele>1278.4460449219</ele>
        <time>2017-12-13T11:31:57Z</time>
      </trkpt>
      <trkpt lat="45.31326" lon="5.87387">
        <ele>1280.4460449219</ele>
        <time>2017-12-13T11:32:00Z</time>
      </trkpt>
      <trkpt lat="45.31329" lon="5.8738">
        <ele>1283.4460449219</ele>
        <time>2017-12-13T11:32:05Z</time>
      </trkpt>
      <trkpt lat="45.31329" lon="5.87373">
        <ele>1287.4460449219</ele>
        <time>2017-12-13T11:32:10Z</time>
      </trkpt>
      <trkpt lat="45.31332" lon="5.87366">
        <ele>1288.4460449219</ele>
        <time>2017-12-13T11:32:12Z</time>
      </trkpt>
      <trkpt lat="45.31333" lon="5.87358">
        <ele>1287.4460449219</ele>
        <time>2017-12-13T11:32:14Z</time>
      </trkpt>
      <trkpt lat="45.31334" lon="5.87351">
        <ele>1286.4460449219</ele>
        <time>2017-12-13T11:32:16Z</time>
      </trkpt>
      <trkpt lat="45.31336" lon="5.87344">
        <ele>1286.4460449219</ele>
        <time>2017-12-13T11:32:19Z</time>
      </trkpt>
      <trkpt lat="45.31336" lon="5.87337">
        <ele>1290.4460449219</ele>
        <time>2017-12-13T11:32:23Z</time>
      </trkpt>
      <trkpt lat="45.31337" lon="5.8733">
        <ele>1291.4460449219</ele>
        <time>2017-12-13T11:32:28Z</time>
      </trkpt>
      <trkpt lat="45.31339" lon="5.87324">
        <ele>1294.4460449219</ele>
        <time>2017-12-13T11:32:34Z</time>
      </trkpt>
      <trkpt lat="45.31341" lon="5.87317">
        <ele>1296.4460449219</ele>
        <time>2017-12-13T11:32:39Z</time>
      </trkpt>
      <trkpt lat="45.3134" lon="5.87309">
        <ele>1297.4460449219</ele>
        <time>2017-12-13T11:32:45Z</time>
      </trkpt>
      <trkpt lat="45.31337" lon="5.87305">
        <ele>1302.4460449219</ele>
        <time>2017-12-13T11:32:49Z</time>
      </trkpt>
      <trkpt lat="45.31341" lon="5.873">
        <ele>1300.4460449219</ele>
        <time>2017-12-13T11:32:52Z</time>
      </trkpt>
      <trkpt lat="45.31344" lon="5.87295">
        <ele>1302.4460449219</ele>
        <time>2017-12-13T11:32:57Z</time>
      </trkpt>
      <trkpt lat="45.31343" lon="5.87289">
        <ele>1305.4460449219</ele>
        <time>2017-12-13T11:33:02Z</time>
      </trkpt>
      <trkpt lat="45.31346" lon="5.87283">
        <ele>1305.4460449219</ele>
        <time>2017-12-13T11:33:08Z</time>
      </trkpt>
      <trkpt lat="45.31349" lon="5.87279">
        <ele>1305.4460449219</ele>
        <time>2017-12-13T11:33:11Z</time>
      </trkpt>
      <trkpt lat="45.31349" lon="5.87272">
        <ele>1306.4460449219</ele>
        <time>2017-12-13T11:33:16Z</time>
      </trkpt>
      <trkpt lat="45.31347" lon="5.87265">
        <ele>1308.4460449219</ele>
        <time>2017-12-13T11:33:22Z</time>
      </trkpt>
      <trkpt lat="45.31348" lon="5.87257">
        <ele>1313.4460449219</ele>
        <time>2017-12-13T11:33:30Z</time>
      </trkpt>
      <trkpt lat="45.3135" lon="5.87251">
        <ele>1315.4460449219</ele>
        <time>2017-12-13T11:33:39Z</time>
      </trkpt>
      <trkpt lat="45.3135" lon="5.87245">
        <ele>1315.4460449219</ele>
        <time>2017-12-13T11:33:45Z</time>
      </trkpt>
      <trkpt lat="45.31353" lon="5.87237">
        <ele>1319.4460449219</ele>
        <time>2017-12-13T11:33:51Z</time>
      </trkpt>
      <trkpt lat="45.31354" lon="5.87231">
        <ele>1318.4460449219</ele>
        <time>2017-12-13T11:33:54Z</time>
      </trkpt>
      <trkpt lat="45.31356" lon="5.87223">
        <ele>1321.4460449219</ele>
        <time>2017-12-13T11:34:01Z</time>
      </trkpt>
      <trkpt lat="45.3136" lon="5.87218">
        <ele>1324.4460449219</ele>
        <time>2017-12-13T11:34:49Z</time>
      </trkpt>
      <trkpt lat="45.31359" lon="5.87225">
        <ele>1318.4460449219</ele>
        <time>2017-12-13T11:35:06Z</time>
      </trkpt>
      <trkpt lat="45.31353" lon="5.87227">
        <ele>1315.4460449219</ele>
        <time>2017-12-13T11:35:11Z</time>
      </trkpt>
      <trkpt lat="45.31349" lon="5.87238">
        <ele>1312.4460449219</ele>
        <time>2017-12-13T11:35:13Z</time>
      </trkpt>
      <trkpt lat="45.31344" lon="5.87261">
        <ele>1306.4460449219</ele>
        <time>2017-12-13T11:35:15Z</time>
      </trkpt>
      <trkpt lat="45.31341" lon="5.87292">
        <ele>1302.4460449219</ele>
        <time>2017-12-13T11:35:17Z</time>
      </trkpt>
      <trkpt lat="45.31337" lon="5.87327">
        <ele>1302.4460449219</ele>
        <time>2017-12-13T11:35:19Z</time>
      </trkpt>
      <trkpt lat="45.31336" lon="5.87356">
        <ele>1295.4460449219</ele>
        <time>2017-12-13T11:35:21Z</time>
      </trkpt>
      <trkpt lat="45.31332" lon="5.87378">
        <ele>1293.4460449219</ele>
        <time>2017-12-13T11:35:23Z</time>
      </trkpt>
      <trkpt lat="45.31329" lon="5.87396">
        <ele>1293.4460449219</ele>
        <time>2017-12-13T11:35:25Z</time>
      </trkpt>
      <trkpt lat="45.31323" lon="5.87415">
        <ele>1289.4460449219</ele>
        <time>2017-12-13T11:35:27Z</time>
      </trkpt>
      <trkpt lat="45.31322" lon="5.87435">
        <ele>1289.4460449219</ele>
        <time>2017-12-13T11:35:29Z</time>
      </trkpt>
      <trkpt lat="45.31328" lon="5.87449">
        <ele>1289.4460449219</ele>
        <time>2017-12-13T11:35:31Z</time>
      </trkpt>
      <trkpt lat="45.31324" lon="5.87467">
        <ele>1287.4460449219</ele>
        <time>2017-12-13T11:35:33Z</time>
      </trkpt>
      <trkpt lat="45.31321" lon="5.87474">
        <ele>1285.4460449219</ele>
        <time>2017-12-13T11:35:35Z</time>
      </trkpt>
      <trkpt lat="45.31321" lon="5.87481">
        <ele>1285.4460449219</ele>
        <time>2017-12-13T11:35:37Z</time>
      </trkpt>
      <trkpt lat="45.31324" lon="5.87496">
        <ele>1282.4460449219</ele>
        <time>2017-12-13T11:35:39Z</time>
      </trkpt>
      <trkpt lat="45.31326" lon="5.87525">
        <ele>1275.4460449219</ele>
        <time>2017-12-13T11:35:42Z</time>
      </trkpt>
      <trkpt lat="45.31331" lon="5.87536">
        <ele>1265.4460449219</ele>
        <time>2017-12-13T11:35:44Z</time>
      </trkpt>
      <trkpt lat="45.31333" lon="5.87543">
        <ele>1260.4460449219</ele>
        <time>2017-12-13T11:35:45Z</time>
      </trkpt>
      <trkpt lat="45.31342" lon="5.87563">
        <ele>1257.4460449219</ele>
        <time>2017-12-13T11:35:48Z</time>
      </trkpt>
      <trkpt lat="45.31338" lon="5.87572">
        <ele>1257.4460449219</ele>
        <time>2017-12-13T11:35:49Z</time>
      </trkpt>
      <trkpt lat="45.31337" lon="5.87595">
        <ele>1254.4460449219</ele>
        <time>2017-12-13T11:35:51Z</time>
      </trkpt>
      <trkpt lat="45.31341" lon="5.87618">
        <ele>1253.4460449219</ele>
        <time>2017-12-13T11:35:53Z</time>
      </trkpt>
      <trkpt lat="45.31352" lon="5.87639">
        <ele>1243.4460449219</ele>
        <time>2017-12-13T11:35:55Z</time>
      </trkpt>
      <trkpt lat="45.31349" lon="5.87663">
        <ele>1237.4460449219</ele>
        <time>2017-12-13T11:35:57Z</time>
      </trkpt>
      <trkpt lat="45.31346" lon="5.87687">
        <ele>1237.4460449219</ele>
        <time>2017-12-13T11:35:59Z</time>
      </trkpt>
      <trkpt lat="45.31347" lon="5.87705">
        <ele>1231.4460449219</ele>
        <time>2017-12-13T11:36:01Z</time>
      </trkpt>
      <trkpt lat="45.31339" lon="5.87726">
        <ele>1230.4460449219</ele>
        <time>2017-12-13T11:36:03Z</time>
      </trkpt>
      <trkpt lat="45.3134" lon="5.87733">
        <ele>1227.4460449219</ele>
        <time>2017-12-13T11:36:04Z</time>
      </trkpt>
      <trkpt lat="45.31341" lon="5.87747">
        <ele>1218.4460449219</ele>
        <time>2017-12-13T11:36:06Z</time>
      </trkpt>
      <trkpt lat="45.31336" lon="5.87765">
        <ele>1216.4460449219</ele>
        <time>2017-12-13T11:36:08Z</time>
      </trkpt>
      <trkpt lat="45.31331" lon="5.87768">
        <ele>1213.4460449219</ele>
        <time>2017-12-13T11:36:09Z</time>
      </trkpt>
      <trkpt lat="45.31333" lon="5.87783">
        <ele>1208.4460449219</ele>
        <time>2017-12-13T11:36:11Z</time>
      </trkpt>
      <trkpt lat="45.31338" lon="5.87799">
        <ele>1200.4460449219</ele>
        <time>2017-12-13T11:36:13Z</time>
      </trkpt>
      <trkpt lat="45.3134" lon="5.8781">
        <ele>1195.4460449219</ele>
        <time>2017-12-13T11:36:14Z</time>
      </trkpt>
      <trkpt lat="45.31342" lon="5.87819">
        <ele>1192.4460449219</ele>
        <time>2017-12-13T11:36:15Z</time>
      </trkpt>
      <trkpt lat="45.31343" lon="5.87827">
        <ele>1186.4460449219</ele>
        <time>2017-12-13T11:36:16Z</time>
      </trkpt>
      <trkpt lat="45.31345" lon="5.87843">
        <ele>1179.4460449219</ele>
        <time>2017-12-13T11:36:18Z</time>
      </trkpt>
      <trkpt lat="45.31348" lon="5.87864">
        <ele>1177.4460449219</ele>
        <time>2017-12-13T11:36:21Z</time>
      </trkpt>
      <trkpt lat="45.31345" lon="5.87873">
        <ele>1175.4460449219</ele>
        <time>2017-12-13T11:36:23Z</time>
      </trkpt>
      <trkpt lat="45.31338" lon="5.87885">
        <ele>1174.4460449219</ele>
        <time>2017-12-13T11:36:25Z</time>
      </trkpt>
      <trkpt lat="45.31334" lon="5.87892">
        <ele>1170.4460449219</ele>
        <time>2017-12-13T11:36:26Z</time>
      </trkpt>
      <trkpt lat="45.31331" lon="5.87909">
        <ele>1166.4460449219</ele>
        <time>2017-12-13T11:36:28Z</time>
      </trkpt>
      <trkpt lat="45.31323" lon="5.8792">
        <ele>1164.4460449219</ele>
        <time>2017-12-13T11:36:30Z</time>
      </trkpt>
      <trkpt lat="45.31325" lon="5.87928">
        <ele>1164.4460449219</ele>
        <time>2017-12-13T11:36:31Z</time>
      </trkpt>
      <trkpt lat="45.31324" lon="5.87934">
        <ele>1150.4460449219</ele>
        <time>2017-12-13T11:36:33Z</time>
      </trkpt>
      <trkpt lat="45.31314" lon="5.87948">
        <ele>1149.4460449219</ele>
        <time>2017-12-13T11:36:35Z</time>
      </trkpt>
      <trkpt lat="45.31303" lon="5.87964">
        <ele>1146.4460449219</ele>
        <time>2017-12-13T11:36:37Z</time>
      </trkpt>
      <trkpt lat="45.31299" lon="5.87988">
        <ele>1142.4460449219</ele>
        <time>2017-12-13T11:36:39Z</time>
      </trkpt>
      <trkpt lat="45.31296" lon="5.88009">
        <ele>1139.4460449219</ele>
        <time>2017-12-13T11:36:41Z</time>
      </trkpt>
      <trkpt lat="45.31287" lon="5.88031">
        <ele>1136.4460449219</ele>
        <time>2017-12-13T11:36:43Z</time>
      </trkpt>
      <trkpt lat="45.31275" lon="5.88055">
        <ele>1129.4470214844</ele>
        <time>2017-12-13T11:36:45Z</time>
      </trkpt>
      <trkpt lat="45.31264" lon="5.88078">
        <ele>1125.4470214844</ele>
        <time>2017-12-13T11:36:47Z</time>
      </trkpt>
      <trkpt lat="45.31257" lon="5.88106">
        <ele>1121.4470214844</ele>
        <time>2017-12-13T11:36:49Z</time>
      </trkpt>
      <trkpt lat="45.31254" lon="5.8812">
        <ele>1119.4470214844</ele>
        <time>2017-12-13T11:36:50Z</time>
      </trkpt>
      <trkpt lat="45.31248" lon="5.88142">
        <ele>1111.4470214844</ele>
        <time>2017-12-13T11:36:52Z</time>
      </trkpt>
      <trkpt lat="45.31245" lon="5.88171">
        <ele>1107.4470214844</ele>
        <time>2017-12-13T11:36:54Z</time>
      </trkpt>
      <trkpt lat="45.31242" lon="5.8818">
        <ele>1103.4470214844</ele>
        <time>2017-12-13T11:36:55Z</time>
      </trkpt>
      <trkpt lat="45.31249" lon="5.88201">
        <ele>1095.4470214844</ele>
        <time>2017-12-13T11:36:57Z</time>
      </trkpt>
      <trkpt lat="45.31263" lon="5.88213">
        <ele>1162.4470214844</ele>
        <time>2017-12-13T11:36:59Z</time>
      </trkpt>
      <trkpt lat="45.31264" lon="5.88235">
        <ele>1124.4470214844</ele>
        <time>2017-12-13T11:37:01Z</time>
      </trkpt>
      <trkpt lat="45.31268" lon="5.88261">
        <ele>1105.4470214844</ele>
        <time>2017-12-13T11:37:03Z</time>
      </trkpt>
      <trkpt lat="45.31276" lon="5.88283">
        <ele>1094.4470214844</ele>
        <time>2017-12-13T11:37:05Z</time>
      </trkpt>
      <trkpt lat="45.31291" lon="5.88299">
        <ele>1075.4470214844</ele>
        <time>2017-12-13T11:37:07Z</time>
      </trkpt>
      <trkpt lat="45.313" lon="5.88319">
        <ele>1064.4470214844</ele>
        <time>2017-12-13T11:37:09Z</time>
      </trkpt>
      <trkpt lat="45.31305" lon="5.88327">
        <ele>1058.4470214844</ele>
        <time>2017-12-13T11:37:10Z</time>
      </trkpt>
      <trkpt lat="45.31312" lon="5.88344">
        <ele>1044.4470214844</ele>
        <time>2017-12-13T11:37:12Z</time>
      </trkpt>
      <trkpt lat="45.31322" lon="5.88361">
        <ele>1035.4470214844</ele>
        <time>2017-12-13T11:37:14Z</time>
      </trkpt>
      <trkpt lat="45.31328" lon="5.88383">
        <ele>1020.4470214844</ele>
        <time>2017-12-13T11:37:16Z</time>
      </trkpt>
      <trkpt lat="45.31335" lon="5.88401">
        <ele>1011.4470214844</ele>
        <time>2017-12-13T11:37:18Z</time>
      </trkpt>
      <trkpt lat="45.31341" lon="5.88421">
        <ele>1044.4470214844</ele>
        <time>2017-12-13T11:37:20Z</time>
      </trkpt>
      <trkpt lat="45.31347" lon="5.88436">
        <ele>1028.4470214844</ele>
        <time>2017-12-13T11:37:22Z</time>
      </trkpt>
      <trkpt lat="45.31352" lon="5.88461">
        <ele>1012.4470214844</ele>
        <time>2017-12-13T11:37:24Z</time>
      </trkpt>
      <trkpt lat="45.31358" lon="5.88472">
        <ele>1003.4470214844</ele>
        <time>2017-12-13T11:37:25Z</time>
      </trkpt>
      <trkpt lat="45.31363" lon="5.88493">
        <ele>990.44702148438</ele>
        <time>2017-12-13T11:37:27Z</time>
      </trkpt>
      <trkpt lat="45.31368" lon="5.88512">
        <ele>985.44702148438</ele>
        <time>2017-12-13T11:37:29Z</time>
      </trkpt>
      <trkpt lat="45.31373" lon="5.88508">
        <ele>974.44702148438</ele>
        <time>2017-12-13T11:38:33Z</time>
      </trkpt>
      <trkpt lat="45.31371" lon="5.88501">
        <ele>976.44702148438</ele>
        <time>2017-12-13T11:38:39Z</time>
      </trkpt>
      <trkpt lat="45.31371" lon="5.88494">
        <ele>977.44702148438</ele>
        <time>2017-12-13T11:38:44Z</time>
      </trkpt>
      <trkpt lat="45.31372" lon="5.88487">
        <ele>981.44702148438</ele>
        <time>2017-12-13T11:38:50Z</time>
      </trkpt>
      <trkpt lat="45.31372" lon="5.8848">
        <ele>981.44702148438</ele>
        <time>2017-12-13T11:38:52Z</time>
      </trkpt>
      <trkpt lat="45.31375" lon="5.88473">
        <ele>981.44702148438</ele>
        <time>2017-12-13T11:38:57Z</time>
      </trkpt>
      <trkpt lat="45.31374" lon="5.88465">
        <ele>978.44702148438</ele>
        <time>2017-12-13T11:39:00Z</time>
      </trkpt>
      <trkpt lat="45.31376" lon="5.88458">
        <ele>978.44702148438</ele>
        <time>2017-12-13T11:39:04Z</time>
      </trkpt>
      <trkpt lat="45.31375" lon="5.88451">
        <ele>981.44702148438</ele>
        <time>2017-12-13T11:39:08Z</time>
      </trkpt>
      <trkpt lat="45.31374" lon="5.88442">
        <ele>985.44702148438</ele>
        <time>2017-12-13T11:39:13Z</time>
      </trkpt>
      <trkpt lat="45.31375" lon="5.88435">
        <ele>984.44702148438</ele>
        <time>2017-12-13T11:39:16Z</time>
      </trkpt>
      <trkpt lat="45.31376" lon="5.88427">
        <ele>983.44702148438</ele>
        <time>2017-12-13T11:39:20Z</time>
      </trkpt>
      <trkpt lat="45.31376" lon="5.88419">
        <ele>987.44702148438</ele>
        <time>2017-12-13T11:39:25Z</time>
      </trkpt>
      <trkpt lat="45.31377" lon="5.88412">
        <ele>990.44702148438</ele>
        <time>2017-12-13T11:39:31Z</time>
      </trkpt>
      <trkpt lat="45.31376" lon="5.88406">
        <ele>996.44702148438</ele>
        <time>2017-12-13T11:39:35Z</time>
      </trkpt>
      <trkpt lat="45.31375" lon="5.884">
        <ele>999.44702148438</ele>
        <time>2017-12-13T11:39:39Z</time>
      </trkpt>
      <trkpt lat="45.31377" lon="5.88393">
        <ele>1001.4470214844</ele>
        <time>2017-12-13T11:39:46Z</time>
      </trkpt>
      <trkpt lat="45.31377" lon="5.88385">
        <ele>1000.4470214844</ele>
        <time>2017-12-13T11:39:49Z</time>
      </trkpt>
      <trkpt lat="45.31378" lon="5.88378">
        <ele>998.44702148438</ele>
        <time>2017-12-13T11:39:53Z</time>
      </trkpt>
      <trkpt lat="45.3138" lon="5.88371">
        <ele>996.44702148438</ele>
        <time>2017-12-13T11:39:57Z</time>
      </trkpt>
      <trkpt lat="45.31381" lon="5.88364">
        <ele>997.44702148438</ele>
        <time>2017-12-13T11:40:03Z</time>
      </trkpt>
      <trkpt lat="45.31381" lon="5.88357">
        <ele>998.44702148438</ele>
        <time>2017-12-13T11:40:07Z</time>
      </trkpt>
      <trkpt lat="45.3138" lon="5.88349">
        <ele>1000.4470214844</ele>
        <time>2017-12-13T11:40:11Z</time>
      </trkpt>
      <trkpt lat="45.31385" lon="5.88346">
        <ele>1007.4470214844</ele>
        <time>2017-12-13T11:40:20Z</time>
      </trkpt>
      <trkpt lat="45.31384" lon="5.88339">
        <ele>1007.4470214844</ele>
        <time>2017-12-13T11:40:22Z</time>
      </trkpt>
      <trkpt lat="45.31385" lon="5.88332">
        <ele>1006.4470214844</ele>
        <time>2017-12-13T11:40:26Z</time>
      </trkpt>
      <trkpt lat="45.31386" lon="5.88325">
        <ele>1009.4470214844</ele>
        <time>2017-12-13T11:40:33Z</time>
      </trkpt>
      <trkpt lat="45.31387" lon="5.88317">
        <ele>1009.4470214844</ele>
        <time>2017-12-13T11:40:37Z</time>
      </trkpt>
      <trkpt lat="45.31388" lon="5.8831">
        <ele>1010.4470214844</ele>
        <time>2017-12-13T11:40:41Z</time>
      </trkpt>
      <trkpt lat="45.31389" lon="5.88303">
        <ele>1009.4470214844</ele>
        <time>2017-12-13T11:40:50Z</time>
      </trkpt>
      <trkpt lat="45.31391" lon="5.88296">
        <ele>1011.4470214844</ele>
        <time>2017-12-13T11:40:53Z</time>
      </trkpt>
      <trkpt lat="45.31393" lon="5.8829">
        <ele>1012.4470214844</ele>
        <time>2017-12-13T11:40:57Z</time>
      </trkpt>
      <trkpt lat="45.31398" lon="5.88287">
        <ele>1009.4470214844</ele>
        <time>2017-12-13T11:41:01Z</time>
      </trkpt>
      <trkpt lat="45.31396" lon="5.88279">
        <ele>1016.4470214844</ele>
        <time>2017-12-13T11:41:09Z</time>
      </trkpt>
      <trkpt lat="45.31399" lon="5.88273">
        <ele>1017.4470214844</ele>
        <time>2017-12-13T11:41:14Z</time>
      </trkpt>
      <trkpt lat="45.314" lon="5.88266">
        <ele>1021.4470214844</ele>
        <time>2017-12-13T11:41:19Z</time>
      </trkpt>
      <trkpt lat="45.31401" lon="5.8826">
        <ele>1021.4470214844</ele>
        <time>2017-12-13T11:41:24Z</time>
      </trkpt>
      <trkpt lat="45.31404" lon="5.88252">
        <ele>1029.4470214844</ele>
        <time>2017-12-13T11:41:33Z</time>
      </trkpt>
      <trkpt lat="45.31402" lon="5.88246">
        <ele>1032.4470214844</ele>
        <time>2017-12-13T11:41:38Z</time>
      </trkpt>
      <trkpt lat="45.31405" lon="5.88239">
        <ele>1031.4470214844</ele>
        <time>2017-12-13T11:41:43Z</time>
      </trkpt>
      <trkpt lat="45.31406" lon="5.88232">
        <ele>1031.4470214844</ele>
        <time>2017-12-13T11:41:48Z</time>
      </trkpt>
      <trkpt lat="45.31408" lon="5.88225">
        <ele>1032.4470214844</ele>
        <time>2017-12-13T11:41:52Z</time>
      </trkpt>
      <trkpt lat="45.31411" lon="5.88219">
        <ele>1034.4470214844</ele>
        <time>2017-12-13T11:41:59Z</time>
      </trkpt>
      <trkpt lat="45.31411" lon="5.88211">
        <ele>1038.4470214844</ele>
        <time>2017-12-13T11:42:06Z</time>
      </trkpt>
      <trkpt lat="45.31411" lon="5.88204">
        <ele>1042.4470214844</ele>
        <time>2017-12-13T11:42:13Z</time>
      </trkpt>
      <trkpt lat="45.31412" lon="5.88198">
        <ele>1044.4470214844</ele>
        <time>2017-12-13T11:42:20Z</time>
      </trkpt>
      <trkpt lat="45.31412" lon="5.88191">
        <ele>1047.4470214844</ele>
        <time>2017-12-13T11:42:32Z</time>
      </trkpt>
      <trkpt lat="45.31412" lon="5.88184">
        <ele>1051.4470214844</ele>
        <time>2017-12-13T11:42:37Z</time>
      </trkpt>
      <trkpt lat="45.31414" lon="5.88178">
        <ele>1055.4470214844</ele>
        <time>2017-12-13T11:42:41Z</time>
      </trkpt>
      <trkpt lat="45.31412" lon="5.88173">
        <ele>1056.4470214844</ele>
        <time>2017-12-13T11:42:44Z</time>
      </trkpt>
      <trkpt lat="45.31412" lon="5.88165">
        <ele>1061.4470214844</ele>
        <time>2017-12-13T11:42:51Z</time>
      </trkpt>
      <trkpt lat="45.3141" lon="5.88157">
        <ele>1061.4470214844</ele>
        <time>2017-12-13T11:42:59Z</time>
      </trkpt>
      <trkpt lat="45.31412" lon="5.88149">
        <ele>1063.4470214844</ele>
        <time>2017-12-13T11:43:10Z</time>
      </trkpt>
      <trkpt lat="45.31414" lon="5.88143">
        <ele>1070.4470214844</ele>
        <time>2017-12-13T11:43:18Z</time>
      </trkpt>
      <trkpt lat="45.31412" lon="5.88136">
        <ele>1071.4470214844</ele>
        <time>2017-12-13T11:43:22Z</time>
      </trkpt>
      <trkpt lat="45.31412" lon="5.88127">
        <ele>1032.4470214844</ele>
        <time>2017-12-13T11:43:30Z</time>
      </trkpt>
      <trkpt lat="45.3141" lon="5.88119">
        <ele>1050.4470214844</ele>
        <time>2017-12-13T11:43:33Z</time>
      </trkpt>
      <trkpt lat="45.31409" lon="5.88112">
        <ele>1065.4470214844</ele>
        <time>2017-12-13T11:43:39Z</time>
      </trkpt>
      <trkpt lat="45.31406" lon="5.88106">
        <ele>1069.4470214844</ele>
        <time>2017-12-13T11:43:43Z</time>
      </trkpt>
      <trkpt lat="45.31403" lon="5.88101">
        <ele>1073.4470214844</ele>
        <time>2017-12-13T11:43:47Z</time>
      </trkpt>
      <trkpt lat="45.31402" lon="5.88094">
        <ele>1073.4470214844</ele>
        <time>2017-12-13T11:43:53Z</time>
      </trkpt>
      <trkpt lat="45.314" lon="5.88089">
        <ele>1076.4470214844</ele>
        <time>2017-12-13T11:43:59Z</time>
      </trkpt>
      <trkpt lat="45.31398" lon="5.88083">
        <ele>1076.4470214844</ele>
        <time>2017-12-13T11:44:04Z</time>
      </trkpt>
      <trkpt lat="45.31396" lon="5.88076">
        <ele>1080.4470214844</ele>
        <time>2017-12-13T11:44:12Z</time>
      </trkpt>
      <trkpt lat="45.31393" lon="5.88072">
        <ele>1081.4470214844</ele>
        <time>2017-12-13T11:44:16Z</time>
      </trkpt>
      <trkpt lat="45.31391" lon="5.88066">
        <ele>1083.4470214844</ele>
        <time>2017-12-13T11:44:24Z</time>
      </trkpt>
      <trkpt lat="45.31387" lon="5.88061">
        <ele>1086.4470214844</ele>
        <time>2017-12-13T11:44:31Z</time>
      </trkpt>
      <trkpt lat="45.31383" lon="5.88058">
        <ele>1091.4470214844</ele>
        <time>2017-12-13T11:44:37Z</time>
      </trkpt>
      <trkpt lat="45.31383" lon="5.88051">
        <ele>1089.4470214844</ele>
        <time>2017-12-13T11:44:43Z</time>
      </trkpt>
      <trkpt lat="45.3138" lon="5.88045">
        <ele>1091.4470214844</ele>
        <time>2017-12-13T11:44:50Z</time>
      </trkpt>
      <trkpt lat="45.31377" lon="5.88039">
        <ele>1098.4470214844</ele>
        <time>2017-12-13T11:44:59Z</time>
      </trkpt>
      <trkpt lat="45.31373" lon="5.88036">
        <ele>1100.4470214844</ele>
        <time>2017-12-13T11:45:04Z</time>
      </trkpt>
      <trkpt lat="45.31371" lon="5.8803">
        <ele>1102.4470214844</ele>
        <time>2017-12-13T11:45:11Z</time>
      </trkpt>
      <trkpt lat="45.31369" lon="5.88023">
        <ele>1101.4470214844</ele>
        <time>2017-12-13T11:45:18Z</time>
      </trkpt>
      <trkpt lat="45.3137" lon="5.88015">
        <ele>1100.4470214844</ele>
        <time>2017-12-13T11:45:25Z</time>
      </trkpt>
      <trkpt lat="45.3137" lon="5.88008">
        <ele>1100.4470214844</ele>
        <time>2017-12-13T11:45:29Z</time>
      </trkpt>
      <trkpt lat="45.31371" lon="5.88002">
        <ele>1105.4470214844</ele>
        <time>2017-12-13T11:45:34Z</time>
      </trkpt>
      <trkpt lat="45.31368" lon="5.87997">
        <ele>1112.4470214844</ele>
        <time>2017-12-13T11:45:40Z</time>
      </trkpt>
      <trkpt lat="45.31369" lon="5.87989">
        <ele>1113.4470214844</ele>
        <time>2017-12-13T11:45:48Z</time>
      </trkpt>
      <trkpt lat="45.31366" lon="5.87981">
        <ele>1118.4470214844</ele>
        <time>2017-12-13T11:45:53Z</time>
      </trkpt>
      <trkpt lat="45.31367" lon="5.87975">
        <ele>1120.4470214844</ele>
        <time>2017-12-13T11:45:57Z</time>
      </trkpt>
      <trkpt lat="45.31366" lon="5.87968">
        <ele>1122.4470214844</ele>
        <time>2017-12-13T11:46:00Z</time>
      </trkpt>
      <trkpt lat="45.31365" lon="5.87961">
        <ele>1129.4470214844</ele>
        <time>2017-12-13T11:46:07Z</time>
      </trkpt>
      <trkpt lat="45.31367" lon="5.87954">
        <ele>1128.4470214844</ele>
        <time>2017-12-13T11:46:14Z</time>
      </trkpt>
      <trkpt lat="45.31369" lon="5.87947">
        <ele>1127.4470214844</ele>
        <time>2017-12-13T11:46:19Z</time>
      </trkpt>
      <trkpt lat="45.31369" lon="5.87941">
        <ele>1132.4470214844</ele>
        <time>2017-12-13T11:46:24Z</time>
      </trkpt>
      <trkpt lat="45.31368" lon="5.87934">
        <ele>1130.4470214844</ele>
        <time>2017-12-13T11:46:28Z</time>
      </trkpt>
      <trkpt lat="45.3137" lon="5.87928">
        <ele>1128.4470214844</ele>
        <time>2017-12-13T11:46:35Z</time>
      </trkpt>
      <trkpt lat="45.31369" lon="5.87921">
        <ele>1131.4470214844</ele>
        <time>2017-12-13T11:46:42Z</time>
      </trkpt>
      <trkpt lat="45.3137" lon="5.87915">
        <ele>1133.4470214844</ele>
        <time>2017-12-13T11:46:48Z</time>
      </trkpt>
      <trkpt lat="45.31368" lon="5.87908">
        <ele>1135.4460449219</ele>
        <time>2017-12-13T11:46:54Z</time>
      </trkpt>
      <trkpt lat="45.31366" lon="5.87901">
        <ele>1140.4460449219</ele>
        <time>2017-12-13T11:47:00Z</time>
      </trkpt>
      <trkpt lat="45.31369" lon="5.87894">
        <ele>1142.4460449219</ele>
        <time>2017-12-13T11:47:06Z</time>
      </trkpt>
      <trkpt lat="45.3137" lon="5.87887">
        <ele>1146.4460449219</ele>
        <time>2017-12-13T11:47:13Z</time>
      </trkpt>
      <trkpt lat="45.3137" lon="5.87879">
        <ele>1146.4460449219</ele>
        <time>2017-12-13T11:47:17Z</time>
      </trkpt>
      <trkpt lat="45.31372" lon="5.87873">
        <ele>1147.4460449219</ele>
        <time>2017-12-13T11:47:23Z</time>
      </trkpt>
      <trkpt lat="45.31372" lon="5.87865">
        <ele>1147.4460449219</ele>
        <time>2017-12-13T11:47:29Z</time>
      </trkpt>
      <trkpt lat="45.31369" lon="5.8786">
        <ele>1149.4460449219</ele>
        <time>2017-12-13T11:47:35Z</time>
      </trkpt>
      <trkpt lat="45.31369" lon="5.87853">
        <ele>1152.4460449219</ele>
        <time>2017-12-13T11:47:41Z</time>
      </trkpt>
      <trkpt lat="45.31369" lon="5.87845">
        <ele>1152.4460449219</ele>
        <time>2017-12-13T11:47:45Z</time>
      </trkpt>
      <trkpt lat="45.31368" lon="5.87839">
        <ele>1152.4460449219</ele>
        <time>2017-12-13T11:47:49Z</time>
      </trkpt>
      <trkpt lat="45.31368" lon="5.87832">
        <ele>1155.4460449219</ele>
        <time>2017-12-13T11:47:56Z</time>
      </trkpt>
      <trkpt lat="45.31367" lon="5.87825">
        <ele>1157.4460449219</ele>
        <time>2017-12-13T11:48:02Z</time>
      </trkpt>
      <trkpt lat="45.31366" lon="5.87818">
        <ele>1161.4460449219</ele>
        <time>2017-12-13T11:48:09Z</time>
      </trkpt>
      <trkpt lat="45.31366" lon="5.87811">
        <ele>1162.4460449219</ele>
        <time>2017-12-13T11:48:15Z</time>
      </trkpt>
      <trkpt lat="45.31365" lon="5.87805">
        <ele>1162.4460449219</ele>
        <time>2017-12-13T11:48:19Z</time>
      </trkpt>
      <trkpt lat="45.31365" lon="5.87799">
        <ele>1163.4460449219</ele>
        <time>2017-12-13T11:48:24Z</time>
      </trkpt>
      <trkpt lat="45.31365" lon="5.8779">
        <ele>1167.4460449219</ele>
        <time>2017-12-13T11:48:32Z</time>
      </trkpt>
      <trkpt lat="45.31363" lon="5.87781">
        <ele>1175.4460449219</ele>
        <time>2017-12-13T11:48:43Z</time>
      </trkpt>
      <trkpt lat="45.31364" lon="5.87775">
        <ele>1174.4460449219</ele>
        <time>2017-12-13T11:48:47Z</time>
      </trkpt>
      <trkpt lat="45.31364" lon="5.87767">
        <ele>1174.4460449219</ele>
        <time>2017-12-13T11:48:53Z</time>
      </trkpt>
      <trkpt lat="45.31363" lon="5.8776">
        <ele>1178.4460449219</ele>
        <time>2017-12-13T11:48:58Z</time>
      </trkpt>
      <trkpt lat="45.31358" lon="5.87744">
        <ele>1181.4460449219</ele>
        <time>2017-12-13T11:49:11Z</time>
      </trkpt>
      <trkpt lat="45.3136" lon="5.87738">
        <ele>1181.4460449219</ele>
        <time>2017-12-13T11:49:13Z</time>
      </trkpt>
      <trkpt lat="45.3136" lon="5.87729">
        <ele>1180.4460449219</ele>
        <time>2017-12-13T11:49:20Z</time>
      </trkpt>
      <trkpt lat="45.31361" lon="5.87723">
        <ele>1181.4460449219</ele>
        <time>2017-12-13T11:49:23Z</time>
      </trkpt>
      <trkpt lat="45.31361" lon="5.87714">
        <ele>1184.4460449219</ele>
        <time>2017-12-13T11:49:29Z</time>
      </trkpt>
      <trkpt lat="45.31363" lon="5.87707">
        <ele>1181.4460449219</ele>
        <time>2017-12-13T11:49:32Z</time>
      </trkpt>
      <trkpt lat="45.3136" lon="5.87702">
        <ele>1187.4460449219</ele>
        <time>2017-12-13T11:49:44Z</time>
      </trkpt>
      <trkpt lat="45.31359" lon="5.87695">
        <ele>1189.4460449219</ele>
        <time>2017-12-13T11:49:49Z</time>
      </trkpt>
      <trkpt lat="45.31361" lon="5.87689">
        <ele>1192.4460449219</ele>
        <time>2017-12-13T11:49:55Z</time>
      </trkpt>
      <trkpt lat="45.31362" lon="5.87682">
        <ele>1195.4460449219</ele>
        <time>2017-12-13T11:50:01Z</time>
      </trkpt>
      <trkpt lat="45.31363" lon="5.87676">
        <ele>1196.4460449219</ele>
        <time>2017-12-13T11:50:07Z</time>
      </trkpt>
      <trkpt lat="45.31362" lon="5.87669">
        <ele>1200.4460449219</ele>
        <time>2017-12-13T11:50:14Z</time>
      </trkpt>
      <trkpt lat="45.3136" lon="5.87662">
        <ele>1200.4460449219</ele>
        <time>2017-12-13T11:50:20Z</time>
      </trkpt>
      <trkpt lat="45.31359" lon="5.87655">
        <ele>1200.4460449219</ele>
        <time>2017-12-13T11:50:27Z</time>
      </trkpt>
      <trkpt lat="45.31359" lon="5.87649">
        <ele>1201.4460449219</ele>
        <time>2017-12-13T11:50:32Z</time>
      </trkpt>
      <trkpt lat="45.3136" lon="5.87643">
        <ele>1207.4460449219</ele>
        <time>2017-12-13T11:50:40Z</time>
      </trkpt>
      <trkpt lat="45.3136" lon="5.87636">
        <ele>1207.4460449219</ele>
        <time>2017-12-13T11:50:45Z</time>
      </trkpt>
      <trkpt lat="45.31359" lon="5.87628">
        <ele>1212.4460449219</ele>
        <time>2017-12-13T11:50:55Z</time>
      </trkpt>
      <trkpt lat="45.31359" lon="5.87621">
        <ele>1211.4460449219</ele>
        <time>2017-12-13T11:51:01Z</time>
      </trkpt>
      <trkpt lat="45.31356" lon="5.87615">
        <ele>1211.4460449219</ele>
        <time>2017-12-13T11:51:06Z</time>
      </trkpt>
      <trkpt lat="45.31357" lon="5.87609">
        <ele>1212.4460449219</ele>
        <time>2017-12-13T11:51:11Z</time>
      </trkpt>
      <trkpt lat="45.31356" lon="5.87602">
        <ele>1217.4460449219</ele>
        <time>2017-12-13T11:51:20Z</time>
      </trkpt>
      <trkpt lat="45.31358" lon="5.87595">
        <ele>1220.4460449219</ele>
        <time>2017-12-13T11:51:26Z</time>
      </trkpt>
      <trkpt lat="45.31355" lon="5.87589">
        <ele>1218.4460449219</ele>
        <time>2017-12-13T11:51:30Z</time>
      </trkpt>
      <trkpt lat="45.31354" lon="5.87582">
        <ele>1220.4460449219</ele>
        <time>2017-12-13T11:51:36Z</time>
      </trkpt>
      <trkpt lat="45.31352" lon="5.87575">
        <ele>1222.4460449219</ele>
        <time>2017-12-13T11:51:42Z</time>
      </trkpt>
      <trkpt lat="45.31351" lon="5.87568">
        <ele>1224.4460449219</ele>
        <time>2017-12-13T11:51:48Z</time>
      </trkpt>
      <trkpt lat="45.31349" lon="5.87562">
        <ele>1230.4460449219</ele>
        <time>2017-12-13T11:51:57Z</time>
      </trkpt>
      <trkpt lat="45.31349" lon="5.87555">
        <ele>1228.4460449219</ele>
        <time>2017-12-13T11:52:01Z</time>
      </trkpt>
      <trkpt lat="45.31348" lon="5.87547">
        <ele>1230.4460449219</ele>
        <time>2017-12-13T11:52:09Z</time>
      </trkpt>
      <trkpt lat="45.31347" lon="5.87541">
        <ele>1233.4460449219</ele>
        <time>2017-12-13T11:52:16Z</time>
      </trkpt>
      <trkpt lat="45.31345" lon="5.87535">
        <ele>1236.4460449219</ele>
        <time>2017-12-13T11:52:23Z</time>
      </trkpt>
      <trkpt lat="45.31343" lon="5.87529">
        <ele>1239.4460449219</ele>
        <time>2017-12-13T11:52:34Z</time>
      </trkpt>
      <trkpt lat="45.31341" lon="5.87522">
        <ele>1240.4460449219</ele>
        <time>2017-12-13T11:52:41Z</time>
      </trkpt>
      <trkpt lat="45.3134" lon="5.87516">
        <ele>1242.4460449219</ele>
        <time>2017-12-13T11:52:47Z</time>
      </trkpt>
      <trkpt lat="45.31339" lon="5.87507">
        <ele>1248.4460449219</ele>
        <time>2017-12-13T11:52:58Z</time>
      </trkpt>
      <trkpt lat="45.31336" lon="5.87502">
        <ele>1252.4460449219</ele>
        <time>2017-12-13T11:53:08Z</time>
      </trkpt>
      <trkpt lat="45.31334" lon="5.87495">
        <ele>1252.4460449219</ele>
        <time>2017-12-13T11:53:14Z</time>
      </trkpt>
      <trkpt lat="45.31336" lon="5.87489">
        <ele>1255.4460449219</ele>
        <time>2017-12-13T11:53:22Z</time>
      </trkpt>
      <trkpt lat="45.31336" lon="5.87482">
        <ele>1256.4460449219</ele>
        <time>2017-12-13T11:53:25Z</time>
      </trkpt>
      <trkpt lat="45.31331" lon="5.8748">
        <ele>1260.4460449219</ele>
        <time>2017-12-13T11:53:34Z</time>
      </trkpt>
      <trkpt lat="45.3133" lon="5.87472">
        <ele>1266.4460449219</ele>
        <time>2017-12-13T11:53:49Z</time>
      </trkpt>
      <trkpt lat="45.31328" lon="5.87465">
        <ele>1263.4460449219</ele>
        <time>2017-12-13T11:53:52Z</time>
      </trkpt>
      <trkpt lat="45.31327" lon="5.87459">
        <ele>1266.4460449219</ele>
        <time>2017-12-13T11:53:58Z</time>
      </trkpt>
      <trkpt lat="45.31325" lon="5.87453">
        <ele>1267.4460449219</ele>
        <time>2017-12-13T11:54:02Z</time>
      </trkpt>
      <trkpt lat="45.31324" lon="5.87444">
        <ele>1269.4460449219</ele>
        <time>2017-12-13T11:54:09Z</time>
      </trkpt>
      <trkpt lat="45.31324" lon="5.87435">
        <ele>1269.4460449219</ele>
        <time>2017-12-13T11:54:14Z</time>
      </trkpt>
      <trkpt lat="45.31321" lon="5.8743">
        <ele>1273.4460449219</ele>
        <time>2017-12-13T11:54:20Z</time>
      </trkpt>
      <trkpt lat="45.3132" lon="5.87423">
        <ele>1276.4460449219</ele>
        <time>2017-12-13T11:54:25Z</time>
      </trkpt>
      <trkpt lat="45.3132" lon="5.87415">
        <ele>1279.4460449219</ele>
        <time>2017-12-13T11:54:30Z</time>
      </trkpt>
      <trkpt lat="45.31322" lon="5.87409">
        <ele>1280.4460449219</ele>
        <time>2017-12-13T11:54:34Z</time>
      </trkpt>
      <trkpt lat="45.3132" lon="5.87403">
        <ele>1282.4460449219</ele>
        <time>2017-12-13T11:54:40Z</time>
      </trkpt>
      <trkpt lat="45.31321" lon="5.87396">
        <ele>1288.4460449219</ele>
        <time>2017-12-13T11:54:50Z</time>
      </trkpt>
      <trkpt lat="45.31325" lon="5.8739">
        <ele>1288.4460449219</ele>
        <time>2017-12-13T11:54:52Z</time>
      </trkpt>
      <trkpt lat="45.31325" lon="5.87382">
        <ele>1289.4460449219</ele>
        <time>2017-12-13T11:54:56Z</time>
      </trkpt>
      <trkpt lat="45.31325" lon="5.87376">
        <ele>1291.4460449219</ele>
        <time>2017-12-13T11:54:59Z</time>
      </trkpt>
      <trkpt lat="45.31328" lon="5.87369">
        <ele>1290.4460449219</ele>
        <time>2017-12-13T11:55:02Z</time>
      </trkpt>
      <trkpt lat="45.3133" lon="5.87362">
        <ele>1290.4460449219</ele>
        <time>2017-12-13T11:55:04Z</time>
      </trkpt>
      <trkpt lat="45.31333" lon="5.87356">
        <ele>1293.4460449219</ele>
        <time>2017-12-13T11:55:09Z</time>
      </trkpt>
      <trkpt lat="45.31332" lon="5.87348">
        <ele>1293.4460449219</ele>
        <time>2017-12-13T11:55:13Z</time>
      </trkpt>
      <trkpt lat="45.31332" lon="5.87341">
        <ele>1294.4460449219</ele>
        <time>2017-12-13T11:55:16Z</time>
      </trkpt>
      <trkpt lat="45.31335" lon="5.8733">
        <ele>1295.4460449219</ele>
        <time>2017-12-13T11:55:21Z</time>
      </trkpt>
      <trkpt lat="45.31337" lon="5.87323">
        <ele>1295.4460449219</ele>
        <time>2017-12-13T11:55:27Z</time>
      </trkpt>
      <trkpt lat="45.31338" lon="5.87316">
        <ele>1292.4460449219</ele>
        <time>2017-12-13T11:55:32Z</time>
      </trkpt>
      <trkpt lat="45.3134" lon="5.87308">
        <ele>1293.4460449219</ele>
        <time>2017-12-13T11:55:36Z</time>
      </trkpt>
      <trkpt lat="45.3134" lon="5.87302">
        <ele>1295.4460449219</ele>
        <time>2017-12-13T11:55:39Z</time>
      </trkpt>
      <trkpt lat="45.31343" lon="5.87296">
        <ele>1301.4460449219</ele>
        <time>2017-12-13T11:55:43Z</time>
      </trkpt>
      <trkpt lat="45.31344" lon="5.87288">
        <ele>1303.4460449219</ele>
        <time>2017-12-13T11:55:48Z</time>
      </trkpt>
      <trkpt lat="45.31346" lon="5.87282">
        <ele>1304.4460449219</ele>
        <time>2017-12-13T11:55:51Z</time>
      </trkpt>
      <trkpt lat="45.31347" lon="5.87275">
        <ele>1303.4460449219</ele>
        <time>2017-12-13T11:55:55Z</time>
      </trkpt>
      <trkpt lat="45.31347" lon="5.87268">
        <ele>1304.4460449219</ele>
        <time>2017-12-13T11:56:00Z</time>
      </trkpt>
      <trkpt lat="45.31347" lon="5.8726">
        <ele>1308.4460449219</ele>
        <time>2017-12-13T11:56:07Z</time>
      </trkpt>
      <trkpt lat="45.31349" lon="5.87251">
        <ele>1307.4460449219</ele>
        <time>2017-12-13T11:56:12Z</time>
      </trkpt>
      <trkpt lat="45.31349" lon="5.87244">
        <ele>1307.4460449219</ele>
        <time>2017-12-13T11:56:15Z</time>
      </trkpt>
      <trkpt lat="45.31349" lon="5.87238">
        <ele>1314.4460449219</ele>
        <time>2017-12-13T11:56:24Z</time>
      </trkpt>
      <trkpt lat="45.3135" lon="5.8723">
        <ele>1316.4460449219</ele>
        <time>2017-12-13T11:56:29Z</time>
      </trkpt>
      <trkpt lat="45.31355" lon="5.87222">
        <ele>1317.4460449219</ele>
        <time>2017-12-13T11:56:33Z</time>
      </trkpt>
      <trkpt lat="45.31357" lon="5.87216">
        <ele>1320.4460449219</ele>
        <time>2017-12-13T11:56:37Z</time>
      </trkpt>
      <trkpt lat="45.31361" lon="5.87212">
        <ele>1321.4460449219</ele>
        <time>2017-12-13T11:56:44Z</time>
      </trkpt>
      <trkpt lat="45.31365" lon="5.87206">
        <ele>1319.4460449219</ele>
        <time>2017-12-13T11:57:04Z</time>
      </trkpt>
      <trkpt lat="45.3137" lon="5.87202">
        <ele>1318.4460449219</ele>
        <time>2017-12-13T11:57:37Z</time>
      </trkpt>
      <trkpt lat="45.31376" lon="5.872">
        <ele>1319.4460449219</ele>
        <time>2017-12-13T11:57:40Z</time>
      </trkpt>
      <trkpt lat="45.31384" lon="5.87199">
        <ele>1319.4460449219</ele>
        <time>2017-12-13T11:57:42Z</time>
      </trkpt>
      <trkpt lat="45.31394" lon="5.872">
        <ele>1319.4460449219</ele>
        <time>2017-12-13T11:57:44Z</time>
      </trkpt>
      <trkpt lat="45.31406" lon="5.87207">
        <ele>1315.4460449219</ele>
        <time>2017-12-13T11:57:46Z</time>
      </trkpt>
      <trkpt lat="45.31408" lon="5.87226">
        <ele>1313.4460449219</ele>
        <time>2017-12-13T11:57:48Z</time>
      </trkpt>
      <trkpt lat="45.31402" lon="5.87244">
        <ele>1310.4460449219</ele>
        <time>2017-12-13T11:57:50Z</time>
      </trkpt>
      <trkpt lat="45.31395" lon="5.87252">
        <ele>1309.4460449219</ele>
        <time>2017-12-13T11:57:51Z</time>
      </trkpt>
      <trkpt lat="45.31384" lon="5.87271">
        <ele>1308.4460449219</ele>
        <time>2017-12-13T11:57:53Z</time>
      </trkpt>
      <trkpt lat="45.31392" lon="5.87288">
        <ele>1305.4460449219</ele>
        <time>2017-12-13T11:57:55Z</time>
      </trkpt>
      <trkpt lat="45.31395" lon="5.8731">
        <ele>1298.4460449219</ele>
        <time>2017-12-13T11:57:57Z</time>
      </trkpt>
      <trkpt lat="45.31389" lon="5.87335">
        <ele>1294.4460449219</ele>
        <time>2017-12-13T11:57:59Z</time>
      </trkpt>
      <trkpt lat="45.31381" lon="5.87358">
        <ele>1292.4460449219</ele>
        <time>2017-12-13T11:58:01Z</time>
      </trkpt>
      <trkpt lat="45.31381" lon="5.8737">
        <ele>1286.4460449219</ele>
        <time>2017-12-13T11:58:02Z</time>
      </trkpt>
      <trkpt lat="45.31381" lon="5.8739">
        <ele>1285.4460449219</ele>
        <time>2017-12-13T11:58:04Z</time>
      </trkpt>
      <trkpt lat="45.31387" lon="5.87418">
        <ele>1279.4460449219</ele>
        <time>2017-12-13T11:58:06Z</time>
      </trkpt>
      <trkpt lat="45.31406" lon="5.87457">
        <ele>1272.4460449219</ele>
        <time>2017-12-13T11:58:09Z</time>
      </trkpt>
      <trkpt lat="45.31409" lon="5.87474">
        <ele>1268.4460449219</ele>
        <time>2017-12-13T11:58:10Z</time>
      </trkpt>
      <trkpt lat="45.31415" lon="5.87488">
        <ele>1266.4460449219</ele>
        <time>2017-12-13T11:58:11Z</time>
      </trkpt>
      <trkpt lat="45.31422" lon="5.87505">
        <ele>1253.4460449219</ele>
        <time>2017-12-13T11:58:13Z</time>
      </trkpt>
      <trkpt lat="45.3143" lon="5.87522">
        <ele>1249.4460449219</ele>
        <time>2017-12-13T11:58:15Z</time>
      </trkpt>
      <trkpt lat="45.31439" lon="5.87547">
        <ele>1244.4460449219</ele>
        <time>2017-12-13T11:58:17Z</time>
      </trkpt>
      <trkpt lat="45.31463" lon="5.87579">
        <ele>1239.4460449219</ele>
        <time>2017-12-13T11:58:20Z</time>
      </trkpt>
      <trkpt lat="45.31472" lon="5.87583">
        <ele>1232.4460449219</ele>
        <time>2017-12-13T11:58:22Z</time>
      </trkpt>
      <trkpt lat="45.31475" lon="5.87599">
        <ele>1229.4460449219</ele>
        <time>2017-12-13T11:58:23Z</time>
      </trkpt>
      <trkpt lat="45.31481" lon="5.87627">
        <ele>1223.4460449219</ele>
        <time>2017-12-13T11:58:25Z</time>
      </trkpt>
      <trkpt lat="45.3148" lon="5.8766">
        <ele>1218.4460449219</ele>
        <time>2017-12-13T11:58:27Z</time>
      </trkpt>
      <trkpt lat="45.31482" lon="5.87686">
        <ele>1211.4460449219</ele>
        <time>2017-12-13T11:58:29Z</time>
      </trkpt>
      <trkpt lat="45.3148" lon="5.87711">
        <ele>1205.4460449219</ele>
        <time>2017-12-13T11:58:31Z</time>
      </trkpt>
      <trkpt lat="45.31484" lon="5.87735">
        <ele>1195.4470214844</ele>
        <time>2017-12-13T11:58:33Z</time>
      </trkpt>
      <trkpt lat="45.31482" lon="5.87744">
        <ele>1190.4470214844</ele>
        <time>2017-12-13T11:58:34Z</time>
      </trkpt>
      <trkpt lat="45.31482" lon="5.87769">
        <ele>1181.4470214844</ele>
        <time>2017-12-13T11:58:37Z</time>
      </trkpt>
      <trkpt lat="45.31478" lon="5.87791">
        <ele>1173.4470214844</ele>
        <time>2017-12-13T11:58:39Z</time>
      </trkpt>
      <trkpt lat="45.31481" lon="5.87808">
        <ele>1165.4470214844</ele>
        <time>2017-12-13T11:58:41Z</time>
      </trkpt>
      <trkpt lat="45.31484" lon="5.87838">
        <ele>1161.4470214844</ele>
        <time>2017-12-13T11:58:43Z</time>
      </trkpt>
      <trkpt lat="45.31491" lon="5.87863">
        <ele>1156.4470214844</ele>
        <time>2017-12-13T11:58:45Z</time>
      </trkpt>
      <trkpt lat="45.31497" lon="5.87891">
        <ele>1153.4470214844</ele>
        <time>2017-12-13T11:58:47Z</time>
      </trkpt>
      <trkpt lat="45.31502" lon="5.87904">
        <ele>1150.4470214844</ele>
        <time>2017-12-13T11:58:48Z</time>
      </trkpt>
      <trkpt lat="45.31503" lon="5.87933">
        <ele>1143.4470214844</ele>
        <time>2017-12-13T11:58:50Z</time>
      </trkpt>
      <trkpt lat="45.31509" lon="5.87959">
        <ele>1139.4470214844</ele>
        <time>2017-12-13T11:58:52Z</time>
      </trkpt>
      <trkpt lat="45.31508" lon="5.87971">
        <ele>1123.4470214844</ele>
        <time>2017-12-13T11:58:54Z</time>
      </trkpt>
      <trkpt lat="45.31513" lon="5.87995">
        <ele>1118.4470214844</ele>
        <time>2017-12-13T11:58:56Z</time>
      </trkpt>
      <trkpt lat="45.31515" lon="5.88008">
        <ele>1109.4470214844</ele>
        <time>2017-12-13T11:58:57Z</time>
      </trkpt>
      <trkpt lat="45.31518" lon="5.8802">
        <ele>1107.4470214844</ele>
        <time>2017-12-13T11:58:58Z</time>
      </trkpt>
      <trkpt lat="45.31529" lon="5.88042">
        <ele>1103.4470214844</ele>
        <time>2017-12-13T11:59:00Z</time>
      </trkpt>
      <trkpt lat="45.31531" lon="5.88088">
        <ele>1099.4470214844</ele>
        <time>2017-12-13T11:59:03Z</time>
      </trkpt>
      <trkpt lat="45.31548" lon="5.88104">
        <ele>1085.4470214844</ele>
        <time>2017-12-13T11:59:05Z</time>
      </trkpt>
      <trkpt lat="45.31555" lon="5.88138">
        <ele>1078.4470214844</ele>
        <time>2017-12-13T11:59:07Z</time>
      </trkpt>
      <trkpt lat="45.31559" lon="5.8817">
        <ele>1074.4470214844</ele>
        <time>2017-12-13T11:59:09Z</time>
      </trkpt>
      <trkpt lat="45.31558" lon="5.88199">
        <ele>1074.4470214844</ele>
        <time>2017-12-13T11:59:11Z</time>
      </trkpt>
      <trkpt lat="45.31564" lon="5.88222">
        <ele>1070.4470214844</ele>
        <time>2017-12-13T11:59:13Z</time>
      </trkpt>
      <trkpt lat="45.3156" lon="5.88245">
        <ele>1069.4470214844</ele>
        <time>2017-12-13T11:59:15Z</time>
      </trkpt>
      <trkpt lat="45.31552" lon="5.88271">
        <ele>1056.4470214844</ele>
        <time>2017-12-13T11:59:18Z</time>
      </trkpt>
      <trkpt lat="45.31542" lon="5.88296">
        <ele>1055.4470214844</ele>
        <time>2017-12-13T11:59:20Z</time>
      </trkpt>
      <trkpt lat="45.31538" lon="5.88305">
        <ele>1053.4470214844</ele>
        <time>2017-12-13T11:59:21Z</time>
      </trkpt>
      <trkpt lat="45.31528" lon="5.88323">
        <ele>1047.4470214844</ele>
        <time>2017-12-13T11:59:23Z</time>
      </trkpt>
      <trkpt lat="45.3152" lon="5.88346">
        <ele>1042.4470214844</ele>
        <time>2017-12-13T11:59:25Z</time>
      </trkpt>
      <trkpt lat="45.31508" lon="5.88363">
        <ele>1035.4470214844</ele>
        <time>2017-12-13T11:59:27Z</time>
      </trkpt>
      <trkpt lat="45.31494" lon="5.8838">
        <ele>1025.4470214844</ele>
        <time>2017-12-13T11:59:29Z</time>
      </trkpt>
      <trkpt lat="45.31482" lon="5.88393">
        <ele>1021.4470214844</ele>
        <time>2017-12-13T11:59:31Z</time>
      </trkpt>
      <trkpt lat="45.31472" lon="5.88404">
        <ele>1017.4470214844</ele>
        <time>2017-12-13T11:59:33Z</time>
      </trkpt>
      <trkpt lat="45.31468" lon="5.88411">
        <ele>1017.4470214844</ele>
        <time>2017-12-13T11:59:34Z</time>
      </trkpt>
      <trkpt lat="45.31459" lon="5.88426">
        <ele>1014.4470214844</ele>
        <time>2017-12-13T11:59:36Z</time>
      </trkpt>
      <trkpt lat="45.31448" lon="5.88441">
        <ele>1012.4470214844</ele>
        <time>2017-12-13T11:59:38Z</time>
      </trkpt>
      <trkpt lat="45.3144" lon="5.88453">
        <ele>1008.4470214844</ele>
        <time>2017-12-13T11:59:40Z</time>
      </trkpt>
      <trkpt lat="45.31432" lon="5.88466">
        <ele>1006.4470214844</ele>
        <time>2017-12-13T11:59:42Z</time>
      </trkpt>
      <trkpt lat="45.31425" lon="5.88479">
        <ele>1002.4470214844</ele>
        <time>2017-12-13T11:59:44Z</time>
      </trkpt>
      <trkpt lat="45.31422" lon="5.88485">
        <ele>999.44702148438</ele>
        <time>2017-12-13T11:59:45Z</time>
      </trkpt>
      <trkpt lat="45.31415" lon="5.885">
        <ele>996.44702148438</ele>
        <time>2017-12-13T11:59:47Z</time>
      </trkpt>
      <trkpt lat="45.31411" lon="5.8852">
        <ele>993.44702148438</ele>
        <time>2017-12-13T11:59:49Z</time>
      </trkpt>
      <trkpt lat="45.31405" lon="5.88539">
        <ele>992.44702148438</ele>
        <time>2017-12-13T11:59:51Z</time>
      </trkpt>
      <trkpt lat="45.314" lon="5.88559">
        <ele>988.44702148438</ele>
        <time>2017-12-13T11:59:53Z</time>
      </trkpt>
      <trkpt lat="45.31394" lon="5.88562">
        <ele>986.44702148438</ele>
        <time>2017-12-13T11:59:54Z</time>
      </trkpt>
      <trkpt lat="45.31387" lon="5.8856">
        <ele>984.44702148438</ele>
        <time>2017-12-13T11:59:55Z</time>
      </trkpt>
      <trkpt lat="45.31378" lon="5.8855">
        <ele>983.44702148438</ele>
        <time>2017-12-13T11:59:57Z</time>
      </trkpt>
      <trkpt lat="45.31375" lon="5.8853">
        <ele>982.44702148438</ele>
        <time>2017-12-13T12:00:00Z</time>
      </trkpt>
      <trkpt lat="45.31373" lon="5.88523">
        <ele>983.44702148438</ele>
        <time>2017-12-13T12:00:02Z</time>
      </trkpt>
      <trkpt lat="45.31374" lon="5.88516">
        <ele>985.44702148438</ele>
        <time>2017-12-13T12:00:05Z</time>
      </trkpt>
      <trkpt lat="45.31372" lon="5.88508">
        <ele>982.44702148438</ele>
        <time>2017-12-13T12:01:11Z</time>
      </trkpt>
      <trkpt lat="45.31372" lon="5.88501">
        <ele>983.44702148438</ele>
        <time>2017-12-13T12:01:14Z</time>
      </trkpt>
      <trkpt lat="45.31371" lon="5.88494">
        <ele>983.44702148438</ele>
        <time>2017-12-13T12:01:20Z</time>
      </trkpt>
      <trkpt lat="45.31372" lon="5.88487">
        <ele>983.44702148438</ele>
        <time>2017-12-13T12:01:24Z</time>
      </trkpt>
      <trkpt lat="45.31371" lon="5.88479">
        <ele>982.44702148438</ele>
        <time>2017-12-13T12:01:26Z</time>
      </trkpt>
      <trkpt lat="45.31371" lon="5.88472">
        <ele>984.44702148438</ele>
        <time>2017-12-13T12:01:29Z</time>
      </trkpt>
      <trkpt lat="45.31371" lon="5.88465">
        <ele>988.44702148438</ele>
        <time>2017-12-13T12:01:34Z</time>
      </trkpt>
      <trkpt lat="45.31371" lon="5.88457">
        <ele>987.44702148438</ele>
        <time>2017-12-13T12:01:36Z</time>
      </trkpt>
      <trkpt lat="45.31371" lon="5.8845">
        <ele>988.44702148438</ele>
        <time>2017-12-13T12:01:39Z</time>
      </trkpt>
      <trkpt lat="45.31372" lon="5.88444">
        <ele>987.44702148438</ele>
        <time>2017-12-13T12:01:44Z</time>
      </trkpt>
      <trkpt lat="45.31373" lon="5.88435">
        <ele>988.44702148438</ele>
        <time>2017-12-13T12:01:48Z</time>
      </trkpt>
      <trkpt lat="45.31371" lon="5.88427">
        <ele>991.44702148438</ele>
        <time>2017-12-13T12:01:53Z</time>
      </trkpt>
      <trkpt lat="45.31372" lon="5.88419">
        <ele>989.44702148438</ele>
        <time>2017-12-13T12:01:56Z</time>
      </trkpt>
      <trkpt lat="45.31372" lon="5.88411">
        <ele>989.44702148438</ele>
        <time>2017-12-13T12:02:00Z</time>
      </trkpt>
      <trkpt lat="45.31373" lon="5.88404">
        <ele>991.44702148438</ele>
        <time>2017-12-13T12:02:05Z</time>
      </trkpt>
      <trkpt lat="45.31373" lon="5.88397">
        <ele>993.44702148438</ele>
        <time>2017-12-13T12:02:10Z</time>
      </trkpt>
      <trkpt lat="45.31374" lon="5.8839">
        <ele>995.44702148438</ele>
        <time>2017-12-13T12:02:16Z</time>
      </trkpt>
      <trkpt lat="45.31375" lon="5.88383">
        <ele>994.44702148438</ele>
        <time>2017-12-13T12:02:20Z</time>
      </trkpt>
      <trkpt lat="45.31375" lon="5.88376">
        <ele>997.44702148438</ele>
        <time>2017-12-13T12:02:25Z</time>
      </trkpt>
      <trkpt lat="45.31376" lon="5.88369">
        <ele>1000.4470214844</ele>
        <time>2017-12-13T12:02:30Z</time>
      </trkpt>
      <trkpt lat="45.31377" lon="5.88362">
        <ele>1000.4470214844</ele>
        <time>2017-12-13T12:02:35Z</time>
      </trkpt>
      <trkpt lat="45.31378" lon="5.88355">
        <ele>999.44702148438</ele>
        <time>2017-12-13T12:02:39Z</time>
      </trkpt>
      <trkpt lat="45.31379" lon="5.88347">
        <ele>1000.4470214844</ele>
        <time>2017-12-13T12:02:46Z</time>
      </trkpt>
      <trkpt lat="45.31383" lon="5.88341">
        <ele>1002.4470214844</ele>
        <time>2017-12-13T12:02:54Z</time>
      </trkpt>
      <trkpt lat="45.31382" lon="5.88332">
        <ele>1003.4470214844</ele>
        <time>2017-12-13T12:02:59Z</time>
      </trkpt>
      <trkpt lat="45.31385" lon="5.88326">
        <ele>1002.4470214844</ele>
        <time>2017-12-13T12:03:05Z</time>
      </trkpt>
      <trkpt lat="45.31388" lon="5.8832">
        <ele>1007.4470214844</ele>
        <time>2017-12-13T12:03:10Z</time>
      </trkpt>
      <trkpt lat="45.31389" lon="5.88314">
        <ele>1005.4470214844</ele>
        <time>2017-12-13T12:03:16Z</time>
      </trkpt>
      <trkpt lat="45.3139" lon="5.88307">
        <ele>1008.4470214844</ele>
        <time>2017-12-13T12:03:22Z</time>
      </trkpt>
      <trkpt lat="45.31392" lon="5.88301">
        <ele>1009.4470214844</ele>
        <time>2017-12-13T12:03:26Z</time>
      </trkpt>
      <trkpt lat="45.31395" lon="5.88295">
        <ele>1008.4470214844</ele>
        <time>2017-12-13T12:03:28Z</time>
      </trkpt>
      <trkpt lat="45.31397" lon="5.88289">
        <ele>1011.4470214844</ele>
        <time>2017-12-13T12:03:34Z</time>
      </trkpt>
      <trkpt lat="45.31399" lon="5.88283">
        <ele>1013.4470214844</ele>
        <time>2017-12-13T12:03:39Z</time>
      </trkpt>
      <trkpt lat="45.31401" lon="5.88278">
        <ele>1016.4470214844</ele>
        <time>2017-12-13T12:03:44Z</time>
      </trkpt>
      <trkpt lat="45.31403" lon="5.88272">
        <ele>1019.4470214844</ele>
        <time>2017-12-13T12:03:50Z</time>
      </trkpt>
      <trkpt lat="45.31404" lon="5.88265">
        <ele>1022.4470214844</ele>
        <time>2017-12-13T12:03:56Z</time>
      </trkpt>
      <trkpt lat="45.31404" lon="5.88259">
        <ele>1024.4470214844</ele>
        <time>2017-12-13T12:04:02Z</time>
      </trkpt>
      <trkpt lat="45.31406" lon="5.88251">
        <ele>1026.4470214844</ele>
        <time>2017-12-13T12:04:09Z</time>
      </trkpt>
      <trkpt lat="45.31407" lon="5.88243">
        <ele>1028.4470214844</ele>
        <time>2017-12-13T12:04:15Z</time>
      </trkpt>
      <trkpt lat="45.31408" lon="5.88236">
        <ele>1030.4470214844</ele>
        <time>2017-12-13T12:04:20Z</time>
      </trkpt>
      <trkpt lat="45.3141" lon="5.88229">
        <ele>1032.4470214844</ele>
        <time>2017-12-13T12:04:26Z</time>
      </trkpt>
      <trkpt lat="45.31411" lon="5.88222">
        <ele>1035.4470214844</ele>
        <time>2017-12-13T12:04:32Z</time>
      </trkpt>
      <trkpt lat="45.31413" lon="5.88215">
        <ele>1036.4470214844</ele>
        <time>2017-12-13T12:04:37Z</time>
      </trkpt>
      <trkpt lat="45.31415" lon="5.8821">
        <ele>1039.4470214844</ele>
        <time>2017-12-13T12:04:41Z</time>
      </trkpt>
      <trkpt lat="45.31417" lon="5.88201">
        <ele>1041.4470214844</ele>
        <time>2017-12-13T12:04:50Z</time>
      </trkpt>
      <trkpt lat="45.31418" lon="5.88194">
        <ele>1041.4470214844</ele>
        <time>2017-12-13T12:04:54Z</time>
      </trkpt>
      <trkpt lat="45.31421" lon="5.88188">
        <ele>1040.4470214844</ele>
        <time>2017-12-13T12:04:59Z</time>
      </trkpt>
      <trkpt lat="45.31422" lon="5.88178">
        <ele>1036.4470214844</ele>
        <time>2017-12-13T12:05:04Z</time>
      </trkpt>
      <trkpt lat="45.31418" lon="5.88175">
        <ele>1043.4470214844</ele>
        <time>2017-12-13T12:05:09Z</time>
      </trkpt>
      <trkpt lat="45.31419" lon="5.88168">
        <ele>1042.4470214844</ele>
        <time>2017-12-13T12:05:13Z</time>
      </trkpt>
      <trkpt lat="45.31417" lon="5.88162">
        <ele>1042.4470214844</ele>
        <time>2017-12-13T12:05:17Z</time>
      </trkpt>
      <trkpt lat="45.31415" lon="5.88156">
        <ele>1048.4470214844</ele>
        <time>2017-12-13T12:05:23Z</time>
      </trkpt>
      <trkpt lat="45.31414" lon="5.88148">
        <ele>1049.4470214844</ele>
        <time>2017-12-13T12:05:30Z</time>
      </trkpt>
      <trkpt lat="45.31413" lon="5.88142">
        <ele>1054.4470214844</ele>
        <time>2017-12-13T12:05:37Z</time>
      </trkpt>
      <trkpt lat="45.3141" lon="5.88137">
        <ele>1059.4470214844</ele>
        <time>2017-12-13T12:05:48Z</time>
      </trkpt>
      <trkpt lat="45.31409" lon="5.8813">
        <ele>1064.4470214844</ele>
        <time>2017-12-13T12:05:55Z</time>
      </trkpt>
      <trkpt lat="45.31409" lon="5.88121">
        <ele>1061.4470214844</ele>
        <time>2017-12-13T12:06:02Z</time>
      </trkpt>
      <trkpt lat="45.31407" lon="5.88114">
        <ele>1063.4470214844</ele>
        <time>2017-12-13T12:06:08Z</time>
      </trkpt>
      <trkpt lat="45.31408" lon="5.88107">
        <ele>1069.4470214844</ele>
        <time>2017-12-13T12:06:19Z</time>
      </trkpt>
      <trkpt lat="45.31408" lon="5.88099">
        <ele>1071.4470214844</ele>
        <time>2017-12-13T12:06:23Z</time>
      </trkpt>
      <trkpt lat="45.31403" lon="5.88097">
        <ele>1078.4470214844</ele>
        <time>2017-12-13T12:06:29Z</time>
      </trkpt>
      <trkpt lat="45.31403" lon="5.8809">
        <ele>1080.4470214844</ele>
        <time>2017-12-13T12:06:35Z</time>
      </trkpt>
      <trkpt lat="45.31401" lon="5.88084">
        <ele>1084.4470214844</ele>
        <time>2017-12-13T12:06:42Z</time>
      </trkpt>
      <trkpt lat="45.31397" lon="5.8808">
        <ele>1086.4470214844</ele>
        <time>2017-12-13T12:06:51Z</time>
      </trkpt>
      <trkpt lat="45.31394" lon="5.88074">
        <ele>1092.4470214844</ele>
        <time>2017-12-13T12:07:17Z</time>
      </trkpt>
      <trkpt lat="45.3139" lon="5.8807">
        <ele>1096.4470214844</ele>
        <time>2017-12-13T12:07:23Z</time>
      </trkpt>
      <trkpt lat="45.31384" lon="5.88062">
        <ele>1099.4470214844</ele>
        <time>2017-12-13T12:07:28Z</time>
      </trkpt>
      <trkpt lat="45.31383" lon="5.88055">
        <ele>1098.4470214844</ele>
        <time>2017-12-13T12:07:32Z</time>
      </trkpt>
      <trkpt lat="45.3138" lon="5.8805">
        <ele>1097.4470214844</ele>
        <time>2017-12-13T12:07:37Z</time>
      </trkpt>
      <trkpt lat="45.31377" lon="5.88043">
        <ele>1097.4470214844</ele>
        <time>2017-12-13T12:07:42Z</time>
      </trkpt>
      <trkpt lat="45.31373" lon="5.88039">
        <ele>1099.4470214844</ele>
        <time>2017-12-13T12:07:48Z</time>
      </trkpt>
      <trkpt lat="45.31373" lon="5.88031">
        <ele>1099.4470214844</ele>
        <time>2017-12-13T12:08:17Z</time>
      </trkpt>
      <trkpt lat="45.31378" lon="5.88031">
        <ele>1094.4470214844</ele>
        <time>2017-12-13T12:08:37Z</time>
      </trkpt>
      <trkpt lat="45.31382" lon="5.88037">
        <ele>1093.4470214844</ele>
        <time>2017-12-13T12:08:39Z</time>
      </trkpt>
      <trkpt lat="45.31386" lon="5.88047">
        <ele>1092.4470214844</ele>
        <time>2017-12-13T12:08:41Z</time>
      </trkpt>
      <trkpt lat="45.31387" lon="5.88074">
        <ele>1092.4470214844</ele>
        <time>2017-12-13T12:08:43Z</time>
      </trkpt>
      <trkpt lat="45.31392" lon="5.88085">
        <ele>1089.4470214844</ele>
        <time>2017-12-13T12:08:45Z</time>
      </trkpt>
      <trkpt lat="45.31399" lon="5.88098">
        <ele>1087.4470214844</ele>
        <time>2017-12-13T12:08:47Z</time>
      </trkpt>
      <trkpt lat="45.31403" lon="5.88096">
        <ele>1084.4470214844</ele>
        <time>2017-12-13T12:08:49Z</time>
      </trkpt>
      <trkpt lat="45.31404" lon="5.88104">
        <ele>1082.4470214844</ele>
        <time>2017-12-13T12:09:36Z</time>
      </trkpt>
      <trkpt lat="45.31402" lon="5.8811">
        <ele>1078.4470214844</ele>
        <time>2017-12-13T12:09:39Z</time>
      </trkpt>
      <trkpt lat="45.31403" lon="5.88122">
        <ele>1076.4470214844</ele>
        <time>2017-12-13T12:09:41Z</time>
      </trkpt>
      <trkpt lat="45.31404" lon="5.88138">
        <ele>1073.4470214844</ele>
        <time>2017-12-13T12:09:42Z</time>
      </trkpt>
      <trkpt lat="45.31403" lon="5.88149">
        <ele>1071.4470214844</ele>
        <time>2017-12-13T12:09:43Z</time>
      </trkpt>
      <trkpt lat="45.31405" lon="5.88178">
        <ele>1062.4470214844</ele>
        <time>2017-12-13T12:09:45Z</time>
      </trkpt>
      <trkpt lat="45.31402" lon="5.88204">
        <ele>1054.4470214844</ele>
        <time>2017-12-13T12:09:47Z</time>
      </trkpt>
      <trkpt lat="45.31398" lon="5.8823">
        <ele>1045.4470214844</ele>
        <time>2017-12-13T12:09:49Z</time>
      </trkpt>
      <trkpt lat="45.31394" lon="5.88254">
        <ele>1038.4470214844</ele>
        <time>2017-12-13T12:09:51Z</time>
      </trkpt>
      <trkpt lat="45.3139" lon="5.88279">
        <ele>1031.4470214844</ele>
        <time>2017-12-13T12:09:53Z</time>
      </trkpt>
      <trkpt lat="45.31384" lon="5.88291">
        <ele>1027.4470214844</ele>
        <time>2017-12-13T12:09:54Z</time>
      </trkpt>
      <trkpt lat="45.3138" lon="5.88317">
        <ele>1023.4470214844</ele>
        <time>2017-12-13T12:09:56Z</time>
      </trkpt>
      <trkpt lat="45.31373" lon="5.88344">
        <ele>1023.4470214844</ele>
        <time>2017-12-13T12:09:58Z</time>
      </trkpt>
      <trkpt lat="45.31371" lon="5.88373">
        <ele>1015.4470214844</ele>
        <time>2017-12-13T12:10:00Z</time>
      </trkpt>
      <trkpt lat="45.31371" lon="5.88407">
        <ele>1007.4470214844</ele>
        <time>2017-12-13T12:10:02Z</time>
      </trkpt>
      <trkpt lat="45.3137" lon="5.88447">
        <ele>1003.4470214844</ele>
        <time>2017-12-13T12:10:04Z</time>
      </trkpt>
      <trkpt lat="45.31371" lon="5.88483">
        <ele>997.44702148438</ele>
        <time>2017-12-13T12:10:06Z</time>
      </trkpt>
      <trkpt lat="45.31376" lon="5.88518">
        <ele>992.44702148438</ele>
        <time>2017-12-13T12:10:08Z</time>
      </trkpt>
      <trkpt lat="45.31377" lon="5.88542">
        <ele>988.44702148438</ele>
        <time>2017-12-13T12:10:10Z</time>
      </trkpt>
      <trkpt lat="45.31378" lon="5.8855">
        <ele>985.44702148438</ele>
        <time>2017-12-13T12:10:11Z</time>
      </trkpt>
      <trkpt lat="45.31379" lon="5.88561">
        <ele>984.44702148438</ele>
        <time>2017-12-13T12:10:12Z</time>
      </trkpt>
      <trkpt lat="45.31388" lon="5.8858">
        <ele>983.44702148438</ele>
        <time>2017-12-13T12:10:14Z</time>
      </trkpt>
      <trkpt lat="45.31396" lon="5.88589">
        <ele>980.44702148438</ele>
        <time>2017-12-13T12:10:16Z</time>
      </trkpt>
      <trkpt lat="45.31405" lon="5.88592">
        <ele>977.44702148438</ele>
        <time>2017-12-13T12:10:18Z</time>
      </trkpt>
      <trkpt lat="45.31405" lon="5.886">
        <ele>973.44799804688</ele>
        <time>2017-12-13T12:10:38Z</time>
      </trkpt>
      <trkpt lat="45.31406" lon="5.88606">
        <ele>971.44799804688</ele>
        <time>2017-12-13T12:10:47Z</time>
      </trkpt>
      <trkpt lat="45.31406" lon="5.88613">
        <ele>971.44799804688</ele>
        <time>2017-12-13T12:11:13Z</time>
      </trkpt>
    </trkseg>
  </trk>
</gpx>